<?xml version="1.0" encoding="UTF-8" standalone="no" ?>
<gpx xmlns="http://www.topografix.com/GPX/1/1" xmlns:xsi="http://www.w3.org/2001/XMLSchema-instance" xsi:schemaLocation="http://www.topografix.com/GPX/1/1 http://www.topografix.com/GPX/1/1/gpx.xsd" version="1.1" creator="VisuGPX - https://www.visugpx.com">
  <metadata>
    <name>12769889-9 Chaillé Piquet </name>
  </metadata>
  <trk>
    <name><![CDATA[12769889-9 Chaillé Piquet ]]></name>
    <trkseg>
      <trkpt lat="46.58433" lon="-1.36507">
        <ele>41</ele>
        <time>2021-05-31T07:57:11Z</time>
      </trkpt>
      <trkpt lat="46.58431" lon="-1.36504">
        <ele>41</ele>
        <time>2021-05-31T07:57:15Z</time>
      </trkpt>
      <trkpt lat="46.58432" lon="-1.36508">
        <ele>41</ele>
        <time>2021-05-31T07:57:19Z</time>
      </trkpt>
      <trkpt lat="46.58431" lon="-1.36506">
        <ele>41</ele>
        <time>2021-05-31T07:57:21Z</time>
      </trkpt>
      <trkpt lat="46.58429" lon="-1.36509">
        <ele>41</ele>
        <time>2021-05-31T07:57:25Z</time>
      </trkpt>
      <trkpt lat="46.58431" lon="-1.36506">
        <ele>41</ele>
        <time>2021-05-31T07:57:29Z</time>
      </trkpt>
      <trkpt lat="46.58425" lon="-1.36495">
        <ele>40</ele>
        <time>2021-05-31T07:57:42Z</time>
      </trkpt>
      <trkpt lat="46.58437" lon="-1.36486">
        <ele>40</ele>
        <time>2021-05-31T07:58:00Z</time>
      </trkpt>
      <trkpt lat="46.58463" lon="-1.36479">
        <ele>38</ele>
        <time>2021-05-31T07:58:35Z</time>
      </trkpt>
      <trkpt lat="46.58518" lon="-1.3648">
        <ele>37</ele>
        <time>2021-05-31T07:59:48Z</time>
      </trkpt>
      <trkpt lat="46.5854" lon="-1.36469">
        <ele>36</ele>
        <time>2021-05-31T08:00:19Z</time>
      </trkpt>
      <trkpt lat="46.58555" lon="-1.36468">
        <ele>36</ele>
        <time>2021-05-31T08:00:39Z</time>
      </trkpt>
      <trkpt lat="46.5858" lon="-1.3646">
        <ele>35</ele>
        <time>2021-05-31T08:01:13Z</time>
      </trkpt>
      <trkpt lat="46.58581" lon="-1.36462">
        <ele>35</ele>
        <time>2021-05-31T08:01:16Z</time>
      </trkpt>
      <trkpt lat="46.58612" lon="-1.36452">
        <ele>34</ele>
        <time>2021-05-31T08:01:58Z</time>
      </trkpt>
      <trkpt lat="46.58629" lon="-1.36451">
        <ele>34</ele>
        <time>2021-05-31T08:02:21Z</time>
      </trkpt>
      <trkpt lat="46.58674" lon="-1.36455">
        <ele>33</ele>
        <time>2021-05-31T08:03:21Z</time>
      </trkpt>
      <trkpt lat="46.58692" lon="-1.36468">
        <ele>33</ele>
        <time>2021-05-31T08:03:48Z</time>
      </trkpt>
      <trkpt lat="46.58703" lon="-1.36487">
        <ele>33</ele>
        <time>2021-05-31T08:04:11Z</time>
      </trkpt>
      <trkpt lat="46.58711" lon="-1.3649">
        <ele>33</ele>
        <time>2021-05-31T08:04:22Z</time>
      </trkpt>
      <trkpt lat="46.58726" lon="-1.36535">
        <ele>33</ele>
        <time>2021-05-31T08:05:08Z</time>
      </trkpt>
      <trkpt lat="46.5873" lon="-1.36565">
        <ele>33</ele>
        <time>2021-05-31T08:05:36Z</time>
      </trkpt>
      <trkpt lat="46.58738" lon="-1.36572">
        <ele>32</ele>
        <time>2021-05-31T08:05:48Z</time>
      </trkpt>
      <trkpt lat="46.58752" lon="-1.36564">
        <ele>32</ele>
        <time>2021-05-31T08:06:08Z</time>
      </trkpt>
      <trkpt lat="46.5878" lon="-1.36535">
        <ele>31</ele>
        <time>2021-05-31T08:06:54Z</time>
      </trkpt>
      <trkpt lat="46.58794" lon="-1.36533">
        <ele>31</ele>
        <time>2021-05-31T08:07:13Z</time>
      </trkpt>
      <trkpt lat="46.58812" lon="-1.3654">
        <ele>31</ele>
        <time>2021-05-31T08:07:38Z</time>
      </trkpt>
      <trkpt lat="46.58832" lon="-1.36566">
        <ele>31</ele>
        <time>2021-05-31T08:08:13Z</time>
      </trkpt>
      <trkpt lat="46.58841" lon="-1.36593">
        <ele>31</ele>
        <time>2021-05-31T08:08:41Z</time>
      </trkpt>
      <trkpt lat="46.58843" lon="-1.36619">
        <ele>32</ele>
        <time>2021-05-31T08:09:05Z</time>
      </trkpt>
      <trkpt lat="46.58836" lon="-1.36628">
        <ele>32</ele>
        <time>2021-05-31T08:09:17Z</time>
      </trkpt>
      <trkpt lat="46.58837" lon="-1.36638">
        <ele>32</ele>
        <time>2021-05-31T08:09:27Z</time>
      </trkpt>
      <trkpt lat="46.58832" lon="-1.36677">
        <ele>32</ele>
        <time>2021-05-31T08:10:03Z</time>
      </trkpt>
      <trkpt lat="46.58843" lon="-1.36706">
        <ele>32</ele>
        <time>2021-05-31T08:10:33Z</time>
      </trkpt>
      <trkpt lat="46.58863" lon="-1.36729">
        <ele>33</ele>
        <time>2021-05-31T08:11:07Z</time>
      </trkpt>
      <trkpt lat="46.5887" lon="-1.36732">
        <ele>33</ele>
        <time>2021-05-31T08:11:17Z</time>
      </trkpt>
      <trkpt lat="46.58876" lon="-1.36729">
        <ele>34</ele>
        <time>2021-05-31T08:11:26Z</time>
      </trkpt>
      <trkpt lat="46.5888" lon="-1.36734">
        <ele>34</ele>
        <time>2021-05-31T08:11:33Z</time>
      </trkpt>
      <trkpt lat="46.58891" lon="-1.36735">
        <ele>35</ele>
        <time>2021-05-31T08:11:47Z</time>
      </trkpt>
      <trkpt lat="46.58905" lon="-1.36731">
        <ele>36</ele>
        <time>2021-05-31T08:12:06Z</time>
      </trkpt>
      <trkpt lat="46.58903" lon="-1.36728">
        <ele>35</ele>
        <time>2021-05-31T08:12:10Z</time>
      </trkpt>
      <trkpt lat="46.58905" lon="-1.36725">
        <ele>36</ele>
        <time>2021-05-31T08:12:14Z</time>
      </trkpt>
      <trkpt lat="46.58909" lon="-1.36728">
        <ele>36</ele>
        <time>2021-05-31T08:12:20Z</time>
      </trkpt>
      <trkpt lat="46.58922" lon="-1.36722">
        <ele>37</ele>
        <time>2021-05-31T08:12:38Z</time>
      </trkpt>
      <trkpt lat="46.58954" lon="-1.367">
        <ele>40</ele>
        <time>2021-05-31T08:13:25Z</time>
      </trkpt>
      <trkpt lat="46.58995" lon="-1.36688">
        <ele>44</ele>
        <time>2021-05-31T08:14:21Z</time>
      </trkpt>
      <trkpt lat="46.59018" lon="-1.36672">
        <ele>45</ele>
        <time>2021-05-31T08:14:55Z</time>
      </trkpt>
      <trkpt lat="46.59036" lon="-1.36649">
        <ele>45</ele>
        <time>2021-05-31T08:15:27Z</time>
      </trkpt>
      <trkpt lat="46.59052" lon="-1.36623">
        <ele>46</ele>
        <time>2021-05-31T08:15:59Z</time>
      </trkpt>
      <trkpt lat="46.59083" lon="-1.36529">
        <ele>51</ele>
        <time>2021-05-31T08:17:35Z</time>
      </trkpt>
      <trkpt lat="46.59089" lon="-1.36487">
        <ele>50</ele>
        <time>2021-05-31T08:18:14Z</time>
      </trkpt>
      <trkpt lat="46.5909" lon="-1.36453">
        <ele>49</ele>
        <time>2021-05-31T08:18:45Z</time>
      </trkpt>
      <trkpt lat="46.59059" lon="-1.36379">
        <ele>48</ele>
        <time>2021-05-31T08:20:05Z</time>
      </trkpt>
      <trkpt lat="46.59057" lon="-1.36356">
        <ele>48</ele>
        <time>2021-05-31T08:20:26Z</time>
      </trkpt>
      <trkpt lat="46.59057" lon="-1.3628">
        <ele>49</ele>
        <time>2021-05-31T08:21:36Z</time>
      </trkpt>
      <trkpt lat="46.59041" lon="-1.36206">
        <ele>50</ele>
        <time>2021-05-31T08:22:47Z</time>
      </trkpt>
      <trkpt lat="46.59032" lon="-1.36176">
        <ele>51</ele>
        <time>2021-05-31T08:23:17Z</time>
      </trkpt>
      <trkpt lat="46.59031" lon="-1.36108">
        <ele>53</ele>
        <time>2021-05-31T08:24:19Z</time>
      </trkpt>
      <trkpt lat="46.59033" lon="-1.36071">
        <ele>53</ele>
        <time>2021-05-31T08:24:53Z</time>
      </trkpt>
      <trkpt lat="46.59039" lon="-1.36028">
        <ele>54</ele>
        <time>2021-05-31T08:25:34Z</time>
      </trkpt>
      <trkpt lat="46.59066" lon="-1.35949">
        <ele>54</ele>
        <time>2021-05-31T08:26:55Z</time>
      </trkpt>
      <trkpt lat="46.59066" lon="-1.35917">
        <ele>55</ele>
        <time>2021-05-31T08:27:24Z</time>
      </trkpt>
      <trkpt lat="46.59046" lon="-1.3586">
        <ele>58</ele>
        <time>2021-05-31T08:28:23Z</time>
      </trkpt>
      <trkpt lat="46.59011" lon="-1.35783">
        <ele>59</ele>
        <time>2021-05-31T08:29:47Z</time>
      </trkpt>
      <trkpt lat="46.58995" lon="-1.35733">
        <ele>60</ele>
        <time>2021-05-31T08:30:38Z</time>
      </trkpt>
      <trkpt lat="46.58984" lon="-1.35663">
        <ele>61</ele>
        <time>2021-05-31T08:31:44Z</time>
      </trkpt>
      <trkpt lat="46.58962" lon="-1.3555">
        <ele>61</ele>
        <time>2021-05-31T08:33:31Z</time>
      </trkpt>
      <trkpt lat="46.58952" lon="-1.35389">
        <ele>60</ele>
        <time>2021-05-31T08:36:00Z</time>
      </trkpt>
      <trkpt lat="46.58935" lon="-1.35272">
        <ele>63</ele>
        <time>2021-05-31T08:37:49Z</time>
      </trkpt>
      <trkpt lat="46.58926" lon="-1.35178">
        <ele>64</ele>
        <time>2021-05-31T08:39:16Z</time>
      </trkpt>
      <trkpt lat="46.58917" lon="-1.3513">
        <ele>65</ele>
        <time>2021-05-31T08:40:02Z</time>
      </trkpt>
      <trkpt lat="46.58907" lon="-1.35051">
        <ele>65</ele>
        <time>2021-05-31T08:41:16Z</time>
      </trkpt>
      <trkpt lat="46.58905" lon="-1.34982">
        <ele>66</ele>
        <time>2021-05-31T08:42:19Z</time>
      </trkpt>
      <trkpt lat="46.58913" lon="-1.34954">
        <ele>67</ele>
        <time>2021-05-31T08:42:47Z</time>
      </trkpt>
      <trkpt lat="46.58936" lon="-1.34898">
        <ele>67</ele>
        <time>2021-05-31T08:43:47Z</time>
      </trkpt>
      <trkpt lat="46.58948" lon="-1.34853">
        <ele>67</ele>
        <time>2021-05-31T08:44:31Z</time>
      </trkpt>
      <trkpt lat="46.58952" lon="-1.3482">
        <ele>67</ele>
        <time>2021-05-31T08:45:02Z</time>
      </trkpt>
      <trkpt lat="46.58952" lon="-1.34788">
        <ele>68</ele>
        <time>2021-05-31T08:45:31Z</time>
      </trkpt>
      <trkpt lat="46.58949" lon="-1.34777">
        <ele>68</ele>
        <time>2021-05-31T08:45:42Z</time>
      </trkpt>
      <trkpt lat="46.5879" lon="-1.34755">
        <ele>69</ele>
        <time>2021-05-31T08:49:15Z</time>
      </trkpt>
      <trkpt lat="46.58762" lon="-1.34745">
        <ele>69</ele>
        <time>2021-05-31T08:49:53Z</time>
      </trkpt>
      <trkpt lat="46.58735" lon="-1.34744">
        <ele>69</ele>
        <time>2021-05-31T08:50:29Z</time>
      </trkpt>
      <trkpt lat="46.58707" lon="-1.34738">
        <ele>70</ele>
        <time>2021-05-31T08:51:07Z</time>
      </trkpt>
      <trkpt lat="46.58649" lon="-1.34717">
        <ele>70</ele>
        <time>2021-05-31T08:52:27Z</time>
      </trkpt>
      <trkpt lat="46.5857" lon="-1.34627">
        <ele>67</ele>
        <time>2021-05-31T08:54:41Z</time>
      </trkpt>
      <trkpt lat="46.58551" lon="-1.346">
        <ele>67</ele>
        <time>2021-05-31T08:55:16Z</time>
      </trkpt>
      <trkpt lat="46.58509" lon="-1.34551">
        <ele>66</ele>
        <time>2021-05-31T08:56:28Z</time>
      </trkpt>
      <trkpt lat="46.58426" lon="-1.34461">
        <ele>62</ele>
        <time>2021-05-31T08:58:46Z</time>
      </trkpt>
      <trkpt lat="46.58363" lon="-1.34396">
        <ele>60</ele>
        <time>2021-05-31T09:00:29Z</time>
      </trkpt>
      <trkpt lat="46.58317" lon="-1.3436">
        <ele>61</ele>
        <time>2021-05-31T09:01:39Z</time>
      </trkpt>
      <trkpt lat="46.58273" lon="-1.3435">
        <ele>61</ele>
        <time>2021-05-31T09:02:39Z</time>
      </trkpt>
      <trkpt lat="46.58248" lon="-1.34352">
        <ele>62</ele>
        <time>2021-05-31T09:03:12Z</time>
      </trkpt>
      <trkpt lat="46.58197" lon="-1.34366">
        <ele>64</ele>
        <time>2021-05-31T09:04:21Z</time>
      </trkpt>
      <trkpt lat="46.58145" lon="-1.34366">
        <ele>66</ele>
        <time>2021-05-31T09:05:31Z</time>
      </trkpt>
      <trkpt lat="46.58078" lon="-1.34372">
        <ele>68</ele>
        <time>2021-05-31T09:07:00Z</time>
      </trkpt>
      <trkpt lat="46.58022" lon="-1.34388">
        <ele>67</ele>
        <time>2021-05-31T09:08:16Z</time>
      </trkpt>
      <trkpt lat="46.57996" lon="-1.34387">
        <ele>66</ele>
        <time>2021-05-31T09:08:51Z</time>
      </trkpt>
      <trkpt lat="46.57948" lon="-1.34361">
        <ele>65</ele>
        <time>2021-05-31T09:09:59Z</time>
      </trkpt>
      <trkpt lat="46.57919" lon="-1.34356">
        <ele>65</ele>
        <time>2021-05-31T09:10:38Z</time>
      </trkpt>
      <trkpt lat="46.57873" lon="-1.34352">
        <ele>63</ele>
        <time>2021-05-31T09:11:40Z</time>
      </trkpt>
      <trkpt lat="46.57848" lon="-1.34347">
        <ele>63</ele>
        <time>2021-05-31T09:12:14Z</time>
      </trkpt>
      <trkpt lat="46.57836" lon="-1.3434">
        <ele>63</ele>
        <time>2021-05-31T09:12:31Z</time>
      </trkpt>
      <trkpt lat="46.5783" lon="-1.34339">
        <ele>63</ele>
        <time>2021-05-31T09:12:39Z</time>
      </trkpt>
      <trkpt lat="46.57771" lon="-1.34349">
        <ele>60</ele>
        <time>2021-05-31T09:13:58Z</time>
      </trkpt>
      <trkpt lat="46.57718" lon="-1.34363">
        <ele>58</ele>
        <time>2021-05-31T09:15:10Z</time>
      </trkpt>
      <trkpt lat="46.57694" lon="-1.34363">
        <ele>56</ele>
        <time>2021-05-31T09:15:42Z</time>
      </trkpt>
      <trkpt lat="46.57685" lon="-1.34355">
        <ele>56</ele>
        <time>2021-05-31T09:15:56Z</time>
      </trkpt>
      <trkpt lat="46.57655" lon="-1.34308">
        <ele>54</ele>
        <time>2021-05-31T09:16:55Z</time>
      </trkpt>
      <trkpt lat="46.57635" lon="-1.343">
        <ele>53</ele>
        <time>2021-05-31T09:17:23Z</time>
      </trkpt>
      <trkpt lat="46.57624" lon="-1.34324">
        <ele>53</ele>
        <time>2021-05-31T09:17:49Z</time>
      </trkpt>
      <trkpt lat="46.57606" lon="-1.34406">
        <ele>53</ele>
        <time>2021-05-31T09:19:08Z</time>
      </trkpt>
      <trkpt lat="46.57596" lon="-1.34439">
        <ele>52</ele>
        <time>2021-05-31T09:19:41Z</time>
      </trkpt>
      <trkpt lat="46.57578" lon="-1.34476">
        <ele>51</ele>
        <time>2021-05-31T09:20:23Z</time>
      </trkpt>
      <trkpt lat="46.57564" lon="-1.3449">
        <ele>51</ele>
        <time>2021-05-31T09:20:45Z</time>
      </trkpt>
      <trkpt lat="46.57561" lon="-1.34489">
        <ele>51</ele>
        <time>2021-05-31T09:20:49Z</time>
      </trkpt>
      <trkpt lat="46.57542" lon="-1.34461">
        <ele>50</ele>
        <time>2021-05-31T09:21:26Z</time>
      </trkpt>
      <trkpt lat="46.57499" lon="-1.34366">
        <ele>48</ele>
        <time>2021-05-31T09:23:10Z</time>
      </trkpt>
      <trkpt lat="46.5749" lon="-1.3434">
        <ele>48</ele>
        <time>2021-05-31T09:23:37Z</time>
      </trkpt>
      <trkpt lat="46.57475" lon="-1.34315">
        <ele>49</ele>
        <time>2021-05-31T09:24:07Z</time>
      </trkpt>
      <trkpt lat="46.57467" lon="-1.3431">
        <ele>49</ele>
        <time>2021-05-31T09:24:19Z</time>
      </trkpt>
      <trkpt lat="46.57456" lon="-1.34317">
        <ele>48</ele>
        <time>2021-05-31T09:24:35Z</time>
      </trkpt>
      <trkpt lat="46.57443" lon="-1.34314">
        <ele>49</ele>
        <time>2021-05-31T09:24:52Z</time>
      </trkpt>
      <trkpt lat="46.57436" lon="-1.34317">
        <ele>49</ele>
        <time>2021-05-31T09:25:02Z</time>
      </trkpt>
      <trkpt lat="46.57419" lon="-1.34314">
        <ele>49</ele>
        <time>2021-05-31T09:25:25Z</time>
      </trkpt>
      <trkpt lat="46.57417" lon="-1.34317">
        <ele>49</ele>
        <time>2021-05-31T09:25:29Z</time>
      </trkpt>
      <trkpt lat="46.57395" lon="-1.34304">
        <ele>49</ele>
        <time>2021-05-31T09:26:00Z</time>
      </trkpt>
      <trkpt lat="46.57384" lon="-1.3429">
        <ele>49</ele>
        <time>2021-05-31T09:26:20Z</time>
      </trkpt>
      <trkpt lat="46.57377" lon="-1.34286">
        <ele>49</ele>
        <time>2021-05-31T09:26:30Z</time>
      </trkpt>
      <trkpt lat="46.57383" lon="-1.34282">
        <ele>49</ele>
        <time>2021-05-31T09:26:39Z</time>
      </trkpt>
      <trkpt lat="46.5742" lon="-1.34317">
        <ele>49</ele>
        <time>2021-05-31T09:27:38Z</time>
      </trkpt>
      <trkpt lat="46.57434" lon="-1.34322">
        <ele>48</ele>
        <time>2021-05-31T09:27:57Z</time>
      </trkpt>
      <trkpt lat="46.57411" lon="-1.34393">
        <ele>47</ele>
        <time>2021-05-31T09:29:09Z</time>
      </trkpt>
      <trkpt lat="46.57413" lon="-1.34413">
        <ele>46</ele>
        <time>2021-05-31T09:29:27Z</time>
      </trkpt>
      <trkpt lat="46.57429" lon="-1.34452">
        <ele>46</ele>
        <time>2021-05-31T09:30:09Z</time>
      </trkpt>
      <trkpt lat="46.57409" lon="-1.34491">
        <ele>45</ele>
        <time>2021-05-31T09:30:54Z</time>
      </trkpt>
      <trkpt lat="46.57407" lon="-1.34512">
        <ele>45</ele>
        <time>2021-05-31T09:31:13Z</time>
      </trkpt>
      <trkpt lat="46.57409" lon="-1.3455">
        <ele>44</ele>
        <time>2021-05-31T09:31:48Z</time>
      </trkpt>
      <trkpt lat="46.57403" lon="-1.34568">
        <ele>44</ele>
        <time>2021-05-31T09:32:06Z</time>
      </trkpt>
      <trkpt lat="46.57414" lon="-1.3462">
        <ele>44</ele>
        <time>2021-05-31T09:32:56Z</time>
      </trkpt>
      <trkpt lat="46.57425" lon="-1.34643">
        <ele>44</ele>
        <time>2021-05-31T09:33:22Z</time>
      </trkpt>
      <trkpt lat="46.57437" lon="-1.34694">
        <ele>45</ele>
        <time>2021-05-31T09:34:11Z</time>
      </trkpt>
      <trkpt lat="46.57437" lon="-1.34703">
        <ele>45</ele>
        <time>2021-05-31T09:34:20Z</time>
      </trkpt>
      <trkpt lat="46.57415" lon="-1.34709">
        <ele>45</ele>
        <time>2021-05-31T09:34:50Z</time>
      </trkpt>
      <trkpt lat="46.57394" lon="-1.34718">
        <ele>45</ele>
        <time>2021-05-31T09:35:19Z</time>
      </trkpt>
      <trkpt lat="46.5737" lon="-1.34733">
        <ele>44</ele>
        <time>2021-05-31T09:35:54Z</time>
      </trkpt>
      <trkpt lat="46.57352" lon="-1.34753">
        <ele>44</ele>
        <time>2021-05-31T09:36:24Z</time>
      </trkpt>
      <trkpt lat="46.57315" lon="-1.34811">
        <ele>44</ele>
        <time>2021-05-31T09:37:37Z</time>
      </trkpt>
      <trkpt lat="46.57281" lon="-1.34855">
        <ele>43</ele>
        <time>2021-05-31T09:38:37Z</time>
      </trkpt>
      <trkpt lat="46.5726" lon="-1.34878">
        <ele>43</ele>
        <time>2021-05-31T09:39:12Z</time>
      </trkpt>
      <trkpt lat="46.57236" lon="-1.34896">
        <ele>42</ele>
        <time>2021-05-31T09:39:48Z</time>
      </trkpt>
      <trkpt lat="46.57228" lon="-1.34905">
        <ele>42</ele>
        <time>2021-05-31T09:40:02Z</time>
      </trkpt>
      <trkpt lat="46.57229" lon="-1.34909">
        <ele>42</ele>
        <time>2021-05-31T09:40:06Z</time>
      </trkpt>
      <trkpt lat="46.57233" lon="-1.34909">
        <ele>42</ele>
        <time>2021-05-31T09:40:11Z</time>
      </trkpt>
      <trkpt lat="46.57209" lon="-1.34911">
        <ele>41</ele>
        <time>2021-05-31T09:40:43Z</time>
      </trkpt>
      <trkpt lat="46.57186" lon="-1.34923">
        <ele>41</ele>
        <time>2021-05-31T09:41:16Z</time>
      </trkpt>
      <trkpt lat="46.57141" lon="-1.34965">
        <ele>38</ele>
        <time>2021-05-31T09:42:27Z</time>
      </trkpt>
      <trkpt lat="46.57114" lon="-1.34985">
        <ele>37</ele>
        <time>2021-05-31T09:43:08Z</time>
      </trkpt>
      <trkpt lat="46.57064" lon="-1.35002">
        <ele>36</ele>
        <time>2021-05-31T09:44:16Z</time>
      </trkpt>
      <trkpt lat="46.56996" lon="-1.35036">
        <ele>36</ele>
        <time>2021-05-31T09:45:52Z</time>
      </trkpt>
      <trkpt lat="46.56932" lon="-1.3506">
        <ele>38</ele>
        <time>2021-05-31T09:47:20Z</time>
      </trkpt>
      <trkpt lat="46.5691" lon="-1.35071">
        <ele>39</ele>
        <time>2021-05-31T09:47:51Z</time>
      </trkpt>
      <trkpt lat="46.56877" lon="-1.35107">
        <ele>37</ele>
        <time>2021-05-31T09:48:46Z</time>
      </trkpt>
      <trkpt lat="46.56872" lon="-1.35112">
        <ele>37</ele>
        <time>2021-05-31T09:48:54Z</time>
      </trkpt>
      <trkpt lat="46.56872" lon="-1.3511">
        <ele>37</ele>
        <time>2021-05-31T09:48:56Z</time>
      </trkpt>
      <trkpt lat="46.5687" lon="-1.35111">
        <ele>37</ele>
        <time>2021-05-31T09:48:59Z</time>
      </trkpt>
      <trkpt lat="46.56872" lon="-1.35111">
        <ele>37</ele>
        <time>2021-05-31T09:49:02Z</time>
      </trkpt>
      <trkpt lat="46.56873" lon="-1.35115">
        <ele>37</ele>
        <time>2021-05-31T09:49:06Z</time>
      </trkpt>
      <trkpt lat="46.56871" lon="-1.35114">
        <ele>37</ele>
        <time>2021-05-31T09:49:08Z</time>
      </trkpt>
      <trkpt lat="46.56857" lon="-1.35136">
        <ele>36</ele>
        <time>2021-05-31T09:49:36Z</time>
      </trkpt>
      <trkpt lat="46.56851" lon="-1.3514">
        <ele>35</ele>
        <time>2021-05-31T09:49:45Z</time>
      </trkpt>
      <trkpt lat="46.5685" lon="-1.35149">
        <ele>35</ele>
        <time>2021-05-31T09:49:53Z</time>
      </trkpt>
      <trkpt lat="46.56833" lon="-1.35179">
        <ele>33</ele>
        <time>2021-05-31T09:50:29Z</time>
      </trkpt>
      <trkpt lat="46.56799" lon="-1.35226">
        <ele>30</ele>
        <time>2021-05-31T09:51:31Z</time>
      </trkpt>
      <trkpt lat="46.56754" lon="-1.35269">
        <ele>27</ele>
        <time>2021-05-31T09:52:43Z</time>
      </trkpt>
      <trkpt lat="46.56742" lon="-1.35297">
        <ele>28</ele>
        <time>2021-05-31T09:53:14Z</time>
      </trkpt>
      <trkpt lat="46.56743" lon="-1.35327">
        <ele>28</ele>
        <time>2021-05-31T09:53:41Z</time>
      </trkpt>
      <trkpt lat="46.56781" lon="-1.35477">
        <ele>29</ele>
        <time>2021-05-31T09:56:08Z</time>
      </trkpt>
      <trkpt lat="46.56786" lon="-1.35509">
        <ele>29</ele>
        <time>2021-05-31T09:56:38Z</time>
      </trkpt>
      <trkpt lat="46.56786" lon="-1.35538">
        <ele>29</ele>
        <time>2021-05-31T09:57:04Z</time>
      </trkpt>
      <trkpt lat="46.5679" lon="-1.35567">
        <ele>30</ele>
        <time>2021-05-31T09:57:32Z</time>
      </trkpt>
      <trkpt lat="46.56774" lon="-1.35583">
        <ele>31</ele>
        <time>2021-05-31T09:57:57Z</time>
      </trkpt>
      <trkpt lat="46.56773" lon="-1.35609">
        <ele>31</ele>
        <time>2021-05-31T09:58:21Z</time>
      </trkpt>
      <trkpt lat="46.56769" lon="-1.35609">
        <ele>31</ele>
        <time>2021-05-31T09:58:27Z</time>
      </trkpt>
      <trkpt lat="46.56765" lon="-1.35605">
        <ele>32</ele>
        <time>2021-05-31T09:58:33Z</time>
      </trkpt>
      <trkpt lat="46.56758" lon="-1.35589">
        <ele>32</ele>
        <time>2021-05-31T09:58:51Z</time>
      </trkpt>
      <trkpt lat="46.56737" lon="-1.35564">
        <ele>33</ele>
        <time>2021-05-31T09:59:27Z</time>
      </trkpt>
      <trkpt lat="46.56736" lon="-1.35549">
        <ele>32</ele>
        <time>2021-05-31T09:59:41Z</time>
      </trkpt>
      <trkpt lat="46.56712" lon="-1.35508">
        <ele>33</ele>
        <time>2021-05-31T10:00:30Z</time>
      </trkpt>
      <trkpt lat="46.56699" lon="-1.35468">
        <ele>34</ele>
        <time>2021-05-31T10:01:11Z</time>
      </trkpt>
      <trkpt lat="46.56687" lon="-1.35453">
        <ele>35</ele>
        <time>2021-05-31T10:01:32Z</time>
      </trkpt>
      <trkpt lat="46.56678" lon="-1.35451">
        <ele>35</ele>
        <time>2021-05-31T10:01:44Z</time>
      </trkpt>
      <trkpt lat="46.56675" lon="-1.35453">
        <ele>36</ele>
        <time>2021-05-31T10:01:48Z</time>
      </trkpt>
      <trkpt lat="46.56667" lon="-1.3547">
        <ele>37</ele>
        <time>2021-05-31T10:02:07Z</time>
      </trkpt>
      <trkpt lat="46.56653" lon="-1.35506">
        <ele>37</ele>
        <time>2021-05-31T10:02:45Z</time>
      </trkpt>
      <trkpt lat="46.56624" lon="-1.35594">
        <ele>41</ele>
        <time>2021-05-31T10:04:15Z</time>
      </trkpt>
      <trkpt lat="46.56583" lon="-1.35648">
        <ele>45</ele>
        <time>2021-05-31T10:05:28Z</time>
      </trkpt>
      <trkpt lat="46.56567" lon="-1.35679">
        <ele>47</ele>
        <time>2021-05-31T10:06:04Z</time>
      </trkpt>
      <trkpt lat="46.56556" lon="-1.35712">
        <ele>48</ele>
        <time>2021-05-31T10:06:38Z</time>
      </trkpt>
      <trkpt lat="46.56543" lon="-1.35739">
        <ele>48</ele>
        <time>2021-05-31T10:07:08Z</time>
      </trkpt>
      <trkpt lat="46.56535" lon="-1.3575">
        <ele>48</ele>
        <time>2021-05-31T10:07:23Z</time>
      </trkpt>
      <trkpt lat="46.5652" lon="-1.35731">
        <ele>47</ele>
        <time>2021-05-31T10:07:49Z</time>
      </trkpt>
      <trkpt lat="46.565" lon="-1.35711">
        <ele>46</ele>
        <time>2021-05-31T10:08:22Z</time>
      </trkpt>
      <trkpt lat="46.5646" lon="-1.3568">
        <ele>48</ele>
        <time>2021-05-31T10:09:22Z</time>
      </trkpt>
      <trkpt lat="46.56432" lon="-1.3565">
        <ele>49</ele>
        <time>2021-05-31T10:10:08Z</time>
      </trkpt>
      <trkpt lat="46.56418" lon="-1.3564">
        <ele>50</ele>
        <time>2021-05-31T10:10:29Z</time>
      </trkpt>
      <trkpt lat="46.56412" lon="-1.35642">
        <ele>51</ele>
        <time>2021-05-31T10:10:37Z</time>
      </trkpt>
      <trkpt lat="46.56372" lon="-1.35671">
        <ele>53</ele>
        <time>2021-05-31T10:11:37Z</time>
      </trkpt>
      <trkpt lat="46.56322" lon="-1.35711">
        <ele>57</ele>
        <time>2021-05-31T10:12:53Z</time>
      </trkpt>
      <trkpt lat="46.56281" lon="-1.35738">
        <ele>60</ele>
        <time>2021-05-31T10:13:53Z</time>
      </trkpt>
      <trkpt lat="46.56193" lon="-1.35774">
        <ele>62</ele>
        <time>2021-05-31T10:15:55Z</time>
      </trkpt>
      <trkpt lat="46.56172" lon="-1.35762">
        <ele>62</ele>
        <time>2021-05-31T10:16:25Z</time>
      </trkpt>
      <trkpt lat="46.56157" lon="-1.35736">
        <ele>62</ele>
        <time>2021-05-31T10:16:57Z</time>
      </trkpt>
      <trkpt lat="46.56141" lon="-1.35722">
        <ele>61</ele>
        <time>2021-05-31T10:17:22Z</time>
      </trkpt>
      <trkpt lat="46.56125" lon="-1.35701">
        <ele>61</ele>
        <time>2021-05-31T10:17:50Z</time>
      </trkpt>
      <trkpt lat="46.56097" lon="-1.35673">
        <ele>60</ele>
        <time>2021-05-31T10:18:36Z</time>
      </trkpt>
      <trkpt lat="46.56084" lon="-1.35656">
        <ele>59</ele>
        <time>2021-05-31T10:18:59Z</time>
      </trkpt>
      <trkpt lat="46.56074" lon="-1.35634">
        <ele>58</ele>
        <time>2021-05-31T10:19:23Z</time>
      </trkpt>
      <trkpt lat="46.56034" lon="-1.3551">
        <ele>53</ele>
        <time>2021-05-31T10:21:29Z</time>
      </trkpt>
      <trkpt lat="46.5603" lon="-1.35482">
        <ele>52</ele>
        <time>2021-05-31T10:21:55Z</time>
      </trkpt>
      <trkpt lat="46.56028" lon="-1.35433">
        <ele>51</ele>
        <time>2021-05-31T10:22:40Z</time>
      </trkpt>
      <trkpt lat="46.56018" lon="-1.3539">
        <ele>50</ele>
        <time>2021-05-31T10:23:22Z</time>
      </trkpt>
      <trkpt lat="46.56003" lon="-1.35356">
        <ele>49</ele>
        <time>2021-05-31T10:23:59Z</time>
      </trkpt>
      <trkpt lat="46.55989" lon="-1.35334">
        <ele>48</ele>
        <time>2021-05-31T10:24:26Z</time>
      </trkpt>
      <trkpt lat="46.55966" lon="-1.35278">
        <ele>47</ele>
        <time>2021-05-31T10:25:26Z</time>
      </trkpt>
      <trkpt lat="46.55937" lon="-1.35227">
        <ele>46</ele>
        <time>2021-05-31T10:26:27Z</time>
      </trkpt>
      <trkpt lat="46.55933" lon="-1.35213">
        <ele>45</ele>
        <time>2021-05-31T10:26:41Z</time>
      </trkpt>
      <trkpt lat="46.55935" lon="-1.35206">
        <ele>45</ele>
        <time>2021-05-31T10:26:48Z</time>
      </trkpt>
      <trkpt lat="46.55928" lon="-1.35208">
        <ele>45</ele>
        <time>2021-05-31T10:26:57Z</time>
      </trkpt>
      <trkpt lat="46.55891" lon="-1.35159">
        <ele>44</ele>
        <time>2021-05-31T10:28:04Z</time>
      </trkpt>
      <trkpt lat="46.55823" lon="-1.35096">
        <ele>41</ele>
        <time>2021-05-31T10:29:52Z</time>
      </trkpt>
      <trkpt lat="46.55806" lon="-1.35083">
        <ele>40</ele>
        <time>2021-05-31T10:30:17Z</time>
      </trkpt>
      <trkpt lat="46.55791" lon="-1.35075">
        <ele>39</ele>
        <time>2021-05-31T10:30:39Z</time>
      </trkpt>
      <trkpt lat="46.55789" lon="-1.35056">
        <ele>38</ele>
        <time>2021-05-31T10:30:56Z</time>
      </trkpt>
      <trkpt lat="46.55805" lon="-1.35027">
        <ele>37</ele>
        <time>2021-05-31T10:31:30Z</time>
      </trkpt>
      <trkpt lat="46.55857" lon="-1.34957">
        <ele>31</ele>
        <time>2021-05-31T10:33:05Z</time>
      </trkpt>
      <trkpt lat="46.5587" lon="-1.34928">
        <ele>29</ele>
        <time>2021-05-31T10:33:37Z</time>
      </trkpt>
      <trkpt lat="46.55881" lon="-1.34894">
        <ele>27</ele>
        <time>2021-05-31T10:34:11Z</time>
      </trkpt>
      <trkpt lat="46.55883" lon="-1.34862">
        <ele>27</ele>
        <time>2021-05-31T10:34:41Z</time>
      </trkpt>
      <trkpt lat="46.5587" lon="-1.34792">
        <ele>27</ele>
        <time>2021-05-31T10:35:47Z</time>
      </trkpt>
      <trkpt lat="46.55865" lon="-1.34779">
        <ele>27</ele>
        <time>2021-05-31T10:36:01Z</time>
      </trkpt>
      <trkpt lat="46.55859" lon="-1.34771">
        <ele>27</ele>
        <time>2021-05-31T10:36:12Z</time>
      </trkpt>
      <trkpt lat="46.55842" lon="-1.34758">
        <ele>26</ele>
        <time>2021-05-31T10:36:37Z</time>
      </trkpt>
      <trkpt lat="46.55837" lon="-1.3476">
        <ele>26</ele>
        <time>2021-05-31T10:36:44Z</time>
      </trkpt>
      <trkpt lat="46.55823" lon="-1.34745">
        <ele>27</ele>
        <time>2021-05-31T10:37:07Z</time>
      </trkpt>
      <trkpt lat="46.55813" lon="-1.34739">
        <ele>29</ele>
        <time>2021-05-31T10:37:22Z</time>
      </trkpt>
      <trkpt lat="46.55758" lon="-1.34677">
        <ele>29</ele>
        <time>2021-05-31T10:38:55Z</time>
      </trkpt>
      <trkpt lat="46.55694" lon="-1.34619">
        <ele>30</ele>
        <time>2021-05-31T10:40:35Z</time>
      </trkpt>
      <trkpt lat="46.55649" lon="-1.34591">
        <ele>30</ele>
        <time>2021-05-31T10:41:41Z</time>
      </trkpt>
      <trkpt lat="46.55617" lon="-1.34557">
        <ele>30</ele>
        <time>2021-05-31T10:42:34Z</time>
      </trkpt>
      <trkpt lat="46.55596" lon="-1.34543">
        <ele>30</ele>
        <time>2021-05-31T10:43:04Z</time>
      </trkpt>
      <trkpt lat="46.55581" lon="-1.34525">
        <ele>29</ele>
        <time>2021-05-31T10:43:30Z</time>
      </trkpt>
      <trkpt lat="46.55579" lon="-1.34519">
        <ele>29</ele>
        <time>2021-05-31T10:43:37Z</time>
      </trkpt>
      <trkpt lat="46.5558" lon="-1.34457">
        <ele>26</ele>
        <time>2021-05-31T10:44:33Z</time>
      </trkpt>
      <trkpt lat="46.55578" lon="-1.34413">
        <ele>24</ele>
        <time>2021-05-31T10:45:14Z</time>
      </trkpt>
      <trkpt lat="46.55534" lon="-1.34396">
        <ele>27</ele>
        <time>2021-05-31T10:46:15Z</time>
      </trkpt>
      <trkpt lat="46.55506" lon="-1.34379">
        <ele>27</ele>
        <time>2021-05-31T10:46:55Z</time>
      </trkpt>
      <trkpt lat="46.55496" lon="-1.3436">
        <ele>26</ele>
        <time>2021-05-31T10:47:17Z</time>
      </trkpt>
      <trkpt lat="46.55469" lon="-1.34337">
        <ele>26</ele>
        <time>2021-05-31T10:47:59Z</time>
      </trkpt>
      <trkpt lat="46.55437" lon="-1.34319">
        <ele>28</ele>
        <time>2021-05-31T10:48:45Z</time>
      </trkpt>
      <trkpt lat="46.55428" lon="-1.3431">
        <ele>28</ele>
        <time>2021-05-31T10:48:59Z</time>
      </trkpt>
      <trkpt lat="46.55422" lon="-1.34298">
        <ele>28</ele>
        <time>2021-05-31T10:49:13Z</time>
      </trkpt>
      <trkpt lat="46.55421" lon="-1.34304">
        <ele>28</ele>
        <time>2021-05-31T10:49:18Z</time>
      </trkpt>
      <trkpt lat="46.55397" lon="-1.34299">
        <ele>29</ele>
        <time>2021-05-31T10:49:51Z</time>
      </trkpt>
      <trkpt lat="46.55388" lon="-1.34289">
        <ele>29</ele>
        <time>2021-05-31T10:50:06Z</time>
      </trkpt>
      <trkpt lat="46.55359" lon="-1.34275">
        <ele>28</ele>
        <time>2021-05-31T10:50:47Z</time>
      </trkpt>
      <trkpt lat="46.5535" lon="-1.34267">
        <ele>27</ele>
        <time>2021-05-31T10:51:01Z</time>
      </trkpt>
      <trkpt lat="46.55356" lon="-1.34272">
        <ele>28</ele>
        <time>2021-05-31T10:51:10Z</time>
      </trkpt>
      <trkpt lat="46.55352" lon="-1.34266">
        <ele>27</ele>
        <time>2021-05-31T10:51:18Z</time>
      </trkpt>
      <trkpt lat="46.55353" lon="-1.34274">
        <ele>28</ele>
        <time>2021-05-31T10:51:25Z</time>
      </trkpt>
      <trkpt lat="46.55357" lon="-1.34275">
        <ele>28</ele>
        <time>2021-05-31T10:51:31Z</time>
      </trkpt>
      <trkpt lat="46.55351" lon="-1.34274">
        <ele>28</ele>
        <time>2021-05-31T10:51:39Z</time>
      </trkpt>
      <trkpt lat="46.55337" lon="-1.34261">
        <ele>26</ele>
        <time>2021-05-31T10:52:01Z</time>
      </trkpt>
      <trkpt lat="46.55306" lon="-1.34243">
        <ele>25</ele>
        <time>2021-05-31T10:52:45Z</time>
      </trkpt>
      <trkpt lat="46.55288" lon="-1.34229">
        <ele>24</ele>
        <time>2021-05-31T10:53:13Z</time>
      </trkpt>
      <trkpt lat="46.55281" lon="-1.34214">
        <ele>24</ele>
        <time>2021-05-31T10:53:29Z</time>
      </trkpt>
      <trkpt lat="46.5526" lon="-1.34203">
        <ele>23</ele>
        <time>2021-05-31T10:53:59Z</time>
      </trkpt>
      <trkpt lat="46.55256" lon="-1.34193">
        <ele>23</ele>
        <time>2021-05-31T10:54:10Z</time>
      </trkpt>
      <trkpt lat="46.5526" lon="-1.34192">
        <ele>23</ele>
        <time>2021-05-31T10:54:15Z</time>
      </trkpt>
      <trkpt lat="46.55256" lon="-1.34196">
        <ele>23</ele>
        <time>2021-05-31T10:54:22Z</time>
      </trkpt>
      <trkpt lat="46.55238" lon="-1.3419">
        <ele>23</ele>
        <time>2021-05-31T10:54:46Z</time>
      </trkpt>
      <trkpt lat="46.55213" lon="-1.34176">
        <ele>23</ele>
        <time>2021-05-31T10:55:22Z</time>
      </trkpt>
      <trkpt lat="46.55193" lon="-1.34172">
        <ele>23</ele>
        <time>2021-05-31T10:55:49Z</time>
      </trkpt>
      <trkpt lat="46.55174" lon="-1.34174">
        <ele>23</ele>
        <time>2021-05-31T10:56:14Z</time>
      </trkpt>
      <trkpt lat="46.55162" lon="-1.34179">
        <ele>24</ele>
        <time>2021-05-31T10:56:31Z</time>
      </trkpt>
      <trkpt lat="46.55133" lon="-1.34181">
        <ele>24</ele>
        <time>2021-05-31T10:57:10Z</time>
      </trkpt>
      <trkpt lat="46.55132" lon="-1.34175">
        <ele>24</ele>
        <time>2021-05-31T10:57:15Z</time>
      </trkpt>
      <trkpt lat="46.5512" lon="-1.34177">
        <ele>24</ele>
        <time>2021-05-31T10:57:31Z</time>
      </trkpt>
      <trkpt lat="46.55111" lon="-1.34186">
        <ele>25</ele>
        <time>2021-05-31T10:57:46Z</time>
      </trkpt>
      <trkpt lat="46.55114" lon="-1.34186">
        <ele>25</ele>
        <time>2021-05-31T10:57:50Z</time>
      </trkpt>
      <trkpt lat="46.55116" lon="-1.34195">
        <ele>26</ele>
        <time>2021-05-31T10:57:59Z</time>
      </trkpt>
      <trkpt lat="46.55112" lon="-1.34199">
        <ele>26</ele>
        <time>2021-05-31T10:58:05Z</time>
      </trkpt>
      <trkpt lat="46.55117" lon="-1.34196">
        <ele>26</ele>
        <time>2021-05-31T10:58:12Z</time>
      </trkpt>
      <trkpt lat="46.55112" lon="-1.34189">
        <ele>25</ele>
        <time>2021-05-31T10:58:22Z</time>
      </trkpt>
      <trkpt lat="46.55106" lon="-1.34194">
        <ele>26</ele>
        <time>2021-05-31T10:58:31Z</time>
      </trkpt>
      <trkpt lat="46.55107" lon="-1.34199">
        <ele>26</ele>
        <time>2021-05-31T10:58:36Z</time>
      </trkpt>
      <trkpt lat="46.55101" lon="-1.34204">
        <ele>27</ele>
        <time>2021-05-31T10:58:45Z</time>
      </trkpt>
      <trkpt lat="46.55074" lon="-1.34214">
        <ele>28</ele>
        <time>2021-05-31T10:59:22Z</time>
      </trkpt>
      <trkpt lat="46.55058" lon="-1.34212">
        <ele>28</ele>
        <time>2021-05-31T10:59:44Z</time>
      </trkpt>
      <trkpt lat="46.55055" lon="-1.34214">
        <ele>28</ele>
        <time>2021-05-31T10:59:48Z</time>
      </trkpt>
      <trkpt lat="46.55009" lon="-1.34214">
        <ele>29</ele>
        <time>2021-05-31T11:00:49Z</time>
      </trkpt>
      <trkpt lat="46.54989" lon="-1.34222">
        <ele>29</ele>
        <time>2021-05-31T11:01:17Z</time>
      </trkpt>
      <trkpt lat="46.54931" lon="-1.34223">
        <ele>29</ele>
        <time>2021-05-31T11:02:34Z</time>
      </trkpt>
      <trkpt lat="46.54921" lon="-1.34225">
        <ele>29</ele>
        <time>2021-05-31T11:02:48Z</time>
      </trkpt>
      <trkpt lat="46.54899" lon="-1.34217">
        <ele>29</ele>
        <time>2021-05-31T11:03:18Z</time>
      </trkpt>
      <trkpt lat="46.54882" lon="-1.34205">
        <ele>28</ele>
        <time>2021-05-31T11:03:43Z</time>
      </trkpt>
      <trkpt lat="46.54852" lon="-1.34177">
        <ele>25</ele>
        <time>2021-05-31T11:04:31Z</time>
      </trkpt>
      <trkpt lat="46.54837" lon="-1.34172">
        <ele>25</ele>
        <time>2021-05-31T11:04:51Z</time>
      </trkpt>
      <trkpt lat="46.54831" lon="-1.34166">
        <ele>24</ele>
        <time>2021-05-31T11:05:01Z</time>
      </trkpt>
      <trkpt lat="46.54831" lon="-1.34158">
        <ele>24</ele>
        <time>2021-05-31T11:05:09Z</time>
      </trkpt>
      <trkpt lat="46.54845" lon="-1.34133">
        <ele>23</ele>
        <time>2021-05-31T11:05:38Z</time>
      </trkpt>
      <trkpt lat="46.54839" lon="-1.34143">
        <ele>23</ele>
        <time>2021-05-31T11:05:50Z</time>
      </trkpt>
      <trkpt lat="46.54839" lon="-1.34138">
        <ele>23</ele>
        <time>2021-05-31T11:05:55Z</time>
      </trkpt>
      <trkpt lat="46.54839" lon="-1.34153">
        <ele>23</ele>
        <time>2021-05-31T11:06:09Z</time>
      </trkpt>
      <trkpt lat="46.54837" lon="-1.34148">
        <ele>23</ele>
        <time>2021-05-31T11:06:14Z</time>
      </trkpt>
      <trkpt lat="46.54832" lon="-1.34149">
        <ele>23</ele>
        <time>2021-05-31T11:06:21Z</time>
      </trkpt>
      <trkpt lat="46.54826" lon="-1.34154">
        <ele>24</ele>
        <time>2021-05-31T11:06:30Z</time>
      </trkpt>
      <trkpt lat="46.54819" lon="-1.34151">
        <ele>24</ele>
        <time>2021-05-31T11:06:40Z</time>
      </trkpt>
      <trkpt lat="46.5478" lon="-1.34122">
        <ele>23</ele>
        <time>2021-05-31T11:07:38Z</time>
      </trkpt>
      <trkpt lat="46.54763" lon="-1.34118">
        <ele>23</ele>
        <time>2021-05-31T11:08:01Z</time>
      </trkpt>
      <trkpt lat="46.54735" lon="-1.34107">
        <ele>25</ele>
        <time>2021-05-31T11:08:40Z</time>
      </trkpt>
      <trkpt lat="46.54716" lon="-1.34085">
        <ele>26</ele>
        <time>2021-05-31T11:09:12Z</time>
      </trkpt>
      <trkpt lat="46.54715" lon="-1.34077">
        <ele>26</ele>
        <time>2021-05-31T11:09:20Z</time>
      </trkpt>
      <trkpt lat="46.54705" lon="-1.34065">
        <ele>26</ele>
        <time>2021-05-31T11:09:37Z</time>
      </trkpt>
      <trkpt lat="46.547" lon="-1.34064">
        <ele>27</ele>
        <time>2021-05-31T11:09:44Z</time>
      </trkpt>
      <trkpt lat="46.547" lon="-1.34067">
        <ele>27</ele>
        <time>2021-05-31T11:09:46Z</time>
      </trkpt>
      <trkpt lat="46.54697" lon="-1.34069">
        <ele>28</ele>
        <time>2021-05-31T11:09:51Z</time>
      </trkpt>
      <trkpt lat="46.54715" lon="-1.34039">
        <ele>24</ele>
        <time>2021-05-31T11:10:27Z</time>
      </trkpt>
      <trkpt lat="46.54691" lon="-1.34053">
        <ele>27</ele>
        <time>2021-05-31T11:11:02Z</time>
      </trkpt>
      <trkpt lat="46.54706" lon="-1.34037">
        <ele>25</ele>
        <time>2021-05-31T11:11:27Z</time>
      </trkpt>
      <trkpt lat="46.547" lon="-1.34043">
        <ele>26</ele>
        <time>2021-05-31T11:11:36Z</time>
      </trkpt>
      <trkpt lat="46.54702" lon="-1.34044">
        <ele>26</ele>
        <time>2021-05-31T11:11:39Z</time>
      </trkpt>
      <trkpt lat="46.54702" lon="-1.34051">
        <ele>26</ele>
        <time>2021-05-31T11:11:46Z</time>
      </trkpt>
      <trkpt lat="46.54702" lon="-1.34045">
        <ele>26</ele>
        <time>2021-05-31T11:11:51Z</time>
      </trkpt>
      <trkpt lat="46.54706" lon="-1.34048">
        <ele>25</ele>
        <time>2021-05-31T11:11:57Z</time>
      </trkpt>
      <trkpt lat="46.54706" lon="-1.3406">
        <ele>26</ele>
        <time>2021-05-31T11:12:08Z</time>
      </trkpt>
      <trkpt lat="46.54703" lon="-1.34073">
        <ele>27</ele>
        <time>2021-05-31T11:12:21Z</time>
      </trkpt>
      <trkpt lat="46.54698" lon="-1.34077">
        <ele>28</ele>
        <time>2021-05-31T11:12:28Z</time>
      </trkpt>
      <trkpt lat="46.54692" lon="-1.34069">
        <ele>28</ele>
        <time>2021-05-31T11:12:39Z</time>
      </trkpt>
      <trkpt lat="46.54651" lon="-1.34038">
        <ele>29</ele>
        <time>2021-05-31T11:13:41Z</time>
      </trkpt>
      <trkpt lat="46.54631" lon="-1.34002">
        <ele>28</ele>
        <time>2021-05-31T11:14:23Z</time>
      </trkpt>
      <trkpt lat="46.54617" lon="-1.33986">
        <ele>28</ele>
        <time>2021-05-31T11:14:47Z</time>
      </trkpt>
      <trkpt lat="46.54611" lon="-1.33975">
        <ele>28</ele>
        <time>2021-05-31T11:15:00Z</time>
      </trkpt>
      <trkpt lat="46.54596" lon="-1.3392">
        <ele>29</ele>
        <time>2021-05-31T11:15:54Z</time>
      </trkpt>
      <trkpt lat="46.54585" lon="-1.33905">
        <ele>31</ele>
        <time>2021-05-31T11:16:15Z</time>
      </trkpt>
      <trkpt lat="46.54577" lon="-1.33901">
        <ele>31</ele>
        <time>2021-05-31T11:16:26Z</time>
      </trkpt>
      <trkpt lat="46.54563" lon="-1.3388">
        <ele>32</ele>
        <time>2021-05-31T11:16:53Z</time>
      </trkpt>
      <trkpt lat="46.54533" lon="-1.33851">
        <ele>35</ele>
        <time>2021-05-31T11:17:41Z</time>
      </trkpt>
      <trkpt lat="46.5452" lon="-1.33846">
        <ele>36</ele>
        <time>2021-05-31T11:17:59Z</time>
      </trkpt>
      <trkpt lat="46.54489" lon="-1.33856">
        <ele>37</ele>
        <time>2021-05-31T11:18:41Z</time>
      </trkpt>
      <trkpt lat="46.54471" lon="-1.33841">
        <ele>37</ele>
        <time>2021-05-31T11:19:09Z</time>
      </trkpt>
      <trkpt lat="46.5445" lon="-1.33814">
        <ele>36</ele>
        <time>2021-05-31T11:19:46Z</time>
      </trkpt>
      <trkpt lat="46.54452" lon="-1.33789">
        <ele>36</ele>
        <time>2021-05-31T11:20:09Z</time>
      </trkpt>
      <trkpt lat="46.5446" lon="-1.33764">
        <ele>36</ele>
        <time>2021-05-31T11:20:35Z</time>
      </trkpt>
      <trkpt lat="46.54472" lon="-1.33749">
        <ele>37</ele>
        <time>2021-05-31T11:20:56Z</time>
      </trkpt>
      <trkpt lat="46.54495" lon="-1.33742">
        <ele>37</ele>
        <time>2021-05-31T11:21:27Z</time>
      </trkpt>
      <trkpt lat="46.5449" lon="-1.33741">
        <ele>37</ele>
        <time>2021-05-31T11:21:34Z</time>
      </trkpt>
      <trkpt lat="46.54489" lon="-1.33738">
        <ele>37</ele>
        <time>2021-05-31T11:21:37Z</time>
      </trkpt>
      <trkpt lat="46.54487" lon="-1.33741">
        <ele>37</ele>
        <time>2021-05-31T11:21:41Z</time>
      </trkpt>
      <trkpt lat="46.54473" lon="-1.33743">
        <ele>37</ele>
        <time>2021-05-31T11:21:59Z</time>
      </trkpt>
      <trkpt lat="46.54465" lon="-1.33735">
        <ele>36</ele>
        <time>2021-05-31T11:22:12Z</time>
      </trkpt>
      <trkpt lat="46.54452" lon="-1.3373">
        <ele>36</ele>
        <time>2021-05-31T11:22:30Z</time>
      </trkpt>
      <trkpt lat="46.54445" lon="-1.33714">
        <ele>36</ele>
        <time>2021-05-31T11:22:48Z</time>
      </trkpt>
      <trkpt lat="46.54442" lon="-1.33698">
        <ele>36</ele>
        <time>2021-05-31T11:23:03Z</time>
      </trkpt>
      <trkpt lat="46.54432" lon="-1.33676">
        <ele>36</ele>
        <time>2021-05-31T11:23:27Z</time>
      </trkpt>
      <trkpt lat="46.5443" lon="-1.33661">
        <ele>36</ele>
        <time>2021-05-31T11:23:41Z</time>
      </trkpt>
      <trkpt lat="46.54435" lon="-1.33644">
        <ele>36</ele>
        <time>2021-05-31T11:23:58Z</time>
      </trkpt>
      <trkpt lat="46.54422" lon="-1.33613">
        <ele>38</ele>
        <time>2021-05-31T11:24:31Z</time>
      </trkpt>
      <trkpt lat="46.54433" lon="-1.33598">
        <ele>37</ele>
        <time>2021-05-31T11:24:52Z</time>
      </trkpt>
      <trkpt lat="46.54433" lon="-1.33585">
        <ele>37</ele>
        <time>2021-05-31T11:25:04Z</time>
      </trkpt>
      <trkpt lat="46.54415" lon="-1.33561">
        <ele>38</ele>
        <time>2021-05-31T11:25:36Z</time>
      </trkpt>
      <trkpt lat="46.54405" lon="-1.33539">
        <ele>38</ele>
        <time>2021-05-31T11:26:00Z</time>
      </trkpt>
      <trkpt lat="46.54387" lon="-1.33483">
        <ele>35</ele>
        <time>2021-05-31T11:26:57Z</time>
      </trkpt>
      <trkpt lat="46.54384" lon="-1.33449">
        <ele>32</ele>
        <time>2021-05-31T11:27:29Z</time>
      </trkpt>
      <trkpt lat="46.54378" lon="-1.3342">
        <ele>31</ele>
        <time>2021-05-31T11:27:56Z</time>
      </trkpt>
      <trkpt lat="46.54375" lon="-1.33419">
        <ele>31</ele>
        <time>2021-05-31T11:28:00Z</time>
      </trkpt>
      <trkpt lat="46.54375" lon="-1.33413">
        <ele>30</ele>
        <time>2021-05-31T11:28:06Z</time>
      </trkpt>
      <trkpt lat="46.54386" lon="-1.33406">
        <ele>29</ele>
        <time>2021-05-31T11:28:22Z</time>
      </trkpt>
      <trkpt lat="46.5439" lon="-1.33384">
        <ele>27</ele>
        <time>2021-05-31T11:28:43Z</time>
      </trkpt>
      <trkpt lat="46.54403" lon="-1.33369">
        <ele>26</ele>
        <time>2021-05-31T11:29:05Z</time>
      </trkpt>
      <trkpt lat="46.54411" lon="-1.33365">
        <ele>25</ele>
        <time>2021-05-31T11:29:16Z</time>
      </trkpt>
      <trkpt lat="46.54413" lon="-1.33368">
        <ele>25</ele>
        <time>2021-05-31T11:29:20Z</time>
      </trkpt>
      <trkpt lat="46.5441" lon="-1.33364">
        <ele>25</ele>
        <time>2021-05-31T11:29:26Z</time>
      </trkpt>
      <trkpt lat="46.54413" lon="-1.33366">
        <ele>25</ele>
        <time>2021-05-31T11:29:30Z</time>
      </trkpt>
      <trkpt lat="46.54413" lon="-1.33364">
        <ele>25</ele>
        <time>2021-05-31T11:29:32Z</time>
      </trkpt>
      <trkpt lat="46.54411" lon="-1.33362">
        <ele>25</ele>
        <time>2021-05-31T11:29:35Z</time>
      </trkpt>
      <trkpt lat="46.54413" lon="-1.33366">
        <ele>25</ele>
        <time>2021-05-31T11:29:40Z</time>
      </trkpt>
      <trkpt lat="46.54408" lon="-1.33367">
        <ele>25</ele>
        <time>2021-05-31T11:29:46Z</time>
      </trkpt>
      <trkpt lat="46.54397" lon="-1.33376">
        <ele>26</ele>
        <time>2021-05-31T11:30:03Z</time>
      </trkpt>
      <trkpt lat="46.54388" lon="-1.3337">
        <ele>26</ele>
        <time>2021-05-31T11:30:16Z</time>
      </trkpt>
      <trkpt lat="46.54382" lon="-1.33345">
        <ele>25</ele>
        <time>2021-05-31T11:30:41Z</time>
      </trkpt>
      <trkpt lat="46.5437" lon="-1.33324">
        <ele>23</ele>
        <time>2021-05-31T11:31:06Z</time>
      </trkpt>
      <trkpt lat="46.54363" lon="-1.33326">
        <ele>24</ele>
        <time>2021-05-31T11:31:15Z</time>
      </trkpt>
      <trkpt lat="46.54349" lon="-1.33308">
        <ele>22</ele>
        <time>2021-05-31T11:31:40Z</time>
      </trkpt>
      <trkpt lat="46.5435" lon="-1.33324">
        <ele>24</ele>
        <time>2021-05-31T11:31:55Z</time>
      </trkpt>
      <trkpt lat="46.54347" lon="-1.33332">
        <ele>25</ele>
        <time>2021-05-31T11:32:03Z</time>
      </trkpt>
      <trkpt lat="46.5433" lon="-1.33331">
        <ele>26</ele>
        <time>2021-05-31T11:32:26Z</time>
      </trkpt>
      <trkpt lat="46.54308" lon="-1.33318">
        <ele>24</ele>
        <time>2021-05-31T11:32:58Z</time>
      </trkpt>
      <trkpt lat="46.54291" lon="-1.33304">
        <ele>22</ele>
        <time>2021-05-31T11:33:24Z</time>
      </trkpt>
      <trkpt lat="46.54222" lon="-1.33279">
        <ele>21</ele>
        <time>2021-05-31T11:34:59Z</time>
      </trkpt>
      <trkpt lat="46.5418" lon="-1.33248">
        <ele>22</ele>
        <time>2021-05-31T11:36:02Z</time>
      </trkpt>
      <trkpt lat="46.54135" lon="-1.33203">
        <ele>20</ele>
        <time>2021-05-31T11:37:14Z</time>
      </trkpt>
      <trkpt lat="46.54112" lon="-1.33176">
        <ele>18</ele>
        <time>2021-05-31T11:37:54Z</time>
      </trkpt>
      <trkpt lat="46.54105" lon="-1.3316">
        <ele>16</ele>
        <time>2021-05-31T11:38:11Z</time>
      </trkpt>
      <trkpt lat="46.54091" lon="-1.33151">
        <ele>16</ele>
        <time>2021-05-31T11:38:32Z</time>
      </trkpt>
      <trkpt lat="46.54074" lon="-1.33152">
        <ele>16</ele>
        <time>2021-05-31T11:38:54Z</time>
      </trkpt>
      <trkpt lat="46.54055" lon="-1.33161">
        <ele>15</ele>
        <time>2021-05-31T11:39:21Z</time>
      </trkpt>
      <trkpt lat="46.54013" lon="-1.33206">
        <ele>18</ele>
        <time>2021-05-31T11:40:31Z</time>
      </trkpt>
      <trkpt lat="46.53988" lon="-1.33253">
        <ele>22</ele>
        <time>2021-05-31T11:41:25Z</time>
      </trkpt>
      <trkpt lat="46.53987" lon="-1.3326">
        <ele>23</ele>
        <time>2021-05-31T11:41:32Z</time>
      </trkpt>
      <trkpt lat="46.53981" lon="-1.33261">
        <ele>22</ele>
        <time>2021-05-31T11:41:40Z</time>
      </trkpt>
      <trkpt lat="46.53972" lon="-1.33272">
        <ele>22</ele>
        <time>2021-05-31T11:41:56Z</time>
      </trkpt>
      <trkpt lat="46.53955" lon="-1.33314">
        <ele>23</ele>
        <time>2021-05-31T11:42:40Z</time>
      </trkpt>
      <trkpt lat="46.5394" lon="-1.3334">
        <ele>22</ele>
        <time>2021-05-31T11:43:11Z</time>
      </trkpt>
      <trkpt lat="46.53908" lon="-1.33382">
        <ele>21</ele>
        <time>2021-05-31T11:44:09Z</time>
      </trkpt>
      <trkpt lat="46.53886" lon="-1.33435">
        <ele>22</ele>
        <time>2021-05-31T11:45:06Z</time>
      </trkpt>
      <trkpt lat="46.53881" lon="-1.33435">
        <ele>21</ele>
        <time>2021-05-31T11:45:12Z</time>
      </trkpt>
      <trkpt lat="46.53875" lon="-1.33431">
        <ele>20</ele>
        <time>2021-05-31T11:45:21Z</time>
      </trkpt>
      <trkpt lat="46.53842" lon="-1.33497">
        <ele>21</ele>
        <time>2021-05-31T11:46:36Z</time>
      </trkpt>
      <trkpt lat="46.53827" lon="-1.33512">
        <ele>21</ele>
        <time>2021-05-31T11:47:00Z</time>
      </trkpt>
      <trkpt lat="46.53806" lon="-1.33519">
        <ele>21</ele>
        <time>2021-05-31T11:47:29Z</time>
      </trkpt>
      <trkpt lat="46.5378" lon="-1.33533">
        <ele>22</ele>
        <time>2021-05-31T11:48:06Z</time>
      </trkpt>
      <trkpt lat="46.53758" lon="-1.33541">
        <ele>23</ele>
        <time>2021-05-31T11:48:36Z</time>
      </trkpt>
      <trkpt lat="46.53731" lon="-1.33539">
        <ele>24</ele>
        <time>2021-05-31T11:49:13Z</time>
      </trkpt>
      <trkpt lat="46.53712" lon="-1.3353">
        <ele>23</ele>
        <time>2021-05-31T11:49:39Z</time>
      </trkpt>
      <trkpt lat="46.53693" lon="-1.33512">
        <ele>20</ele>
        <time>2021-05-31T11:50:09Z</time>
      </trkpt>
      <trkpt lat="46.53672" lon="-1.335">
        <ele>19</ele>
        <time>2021-05-31T11:50:40Z</time>
      </trkpt>
      <trkpt lat="46.53657" lon="-1.33482">
        <ele>18</ele>
        <time>2021-05-31T11:51:06Z</time>
      </trkpt>
      <trkpt lat="46.53641" lon="-1.33472">
        <ele>18</ele>
        <time>2021-05-31T11:51:29Z</time>
      </trkpt>
      <trkpt lat="46.5363" lon="-1.33469">
        <ele>18</ele>
        <time>2021-05-31T11:51:44Z</time>
      </trkpt>
      <trkpt lat="46.53609" lon="-1.33458">
        <ele>19</ele>
        <time>2021-05-31T11:52:13Z</time>
      </trkpt>
      <trkpt lat="46.53591" lon="-1.33445">
        <ele>20</ele>
        <time>2021-05-31T11:52:40Z</time>
      </trkpt>
      <trkpt lat="46.53583" lon="-1.33448">
        <ele>21</ele>
        <time>2021-05-31T11:52:51Z</time>
      </trkpt>
      <trkpt lat="46.53575" lon="-1.33461">
        <ele>21</ele>
        <time>2021-05-31T11:53:07Z</time>
      </trkpt>
      <trkpt lat="46.53563" lon="-1.33474">
        <ele>22</ele>
        <time>2021-05-31T11:53:27Z</time>
      </trkpt>
      <trkpt lat="46.53558" lon="-1.33476">
        <ele>22</ele>
        <time>2021-05-31T11:53:34Z</time>
      </trkpt>
      <trkpt lat="46.53561" lon="-1.33472">
        <ele>22</ele>
        <time>2021-05-31T11:53:40Z</time>
      </trkpt>
      <trkpt lat="46.53552" lon="-1.33456">
        <ele>22</ele>
        <time>2021-05-31T11:53:59Z</time>
      </trkpt>
      <trkpt lat="46.53534" lon="-1.33453">
        <ele>23</ele>
        <time>2021-05-31T11:54:23Z</time>
      </trkpt>
      <trkpt lat="46.53522" lon="-1.33463">
        <ele>23</ele>
        <time>2021-05-31T11:54:41Z</time>
      </trkpt>
      <trkpt lat="46.53516" lon="-1.33482">
        <ele>23</ele>
        <time>2021-05-31T11:55:00Z</time>
      </trkpt>
      <trkpt lat="46.53508" lon="-1.33493">
        <ele>22</ele>
        <time>2021-05-31T11:55:15Z</time>
      </trkpt>
      <trkpt lat="46.53491" lon="-1.33538">
        <ele>23</ele>
        <time>2021-05-31T11:56:02Z</time>
      </trkpt>
      <trkpt lat="46.53477" lon="-1.33559">
        <ele>25</ele>
        <time>2021-05-31T11:56:29Z</time>
      </trkpt>
      <trkpt lat="46.5347" lon="-1.33555">
        <ele>25</ele>
        <time>2021-05-31T11:56:39Z</time>
      </trkpt>
      <trkpt lat="46.5346" lon="-1.33533">
        <ele>27</ele>
        <time>2021-05-31T11:57:03Z</time>
      </trkpt>
      <trkpt lat="46.53452" lon="-1.33528">
        <ele>28</ele>
        <time>2021-05-31T11:57:15Z</time>
      </trkpt>
      <trkpt lat="46.53423" lon="-1.33531">
        <ele>32</ele>
        <time>2021-05-31T11:57:54Z</time>
      </trkpt>
      <trkpt lat="46.53387" lon="-1.3353">
        <ele>38</ele>
        <time>2021-05-31T11:58:42Z</time>
      </trkpt>
      <trkpt lat="46.53368" lon="-1.33536">
        <ele>40</ele>
        <time>2021-05-31T11:59:08Z</time>
      </trkpt>
      <trkpt lat="46.5336" lon="-1.33542">
        <ele>41</ele>
        <time>2021-05-31T11:59:20Z</time>
      </trkpt>
      <trkpt lat="46.53352" lon="-1.33554">
        <ele>41</ele>
        <time>2021-05-31T11:59:35Z</time>
      </trkpt>
      <trkpt lat="46.53353" lon="-1.33563">
        <ele>41</ele>
        <time>2021-05-31T11:59:44Z</time>
      </trkpt>
      <trkpt lat="46.53365" lon="-1.33598">
        <ele>36</ele>
        <time>2021-05-31T12:00:19Z</time>
      </trkpt>
      <trkpt lat="46.53361" lon="-1.33622">
        <ele>35</ele>
        <time>2021-05-31T12:00:42Z</time>
      </trkpt>
      <trkpt lat="46.53325" lon="-1.33702">
        <ele>33</ele>
        <time>2021-05-31T12:02:10Z</time>
      </trkpt>
      <trkpt lat="46.53275" lon="-1.33747">
        <ele>37</ele>
        <time>2021-05-31T12:03:28Z</time>
      </trkpt>
      <trkpt lat="46.53263" lon="-1.33763">
        <ele>37</ele>
        <time>2021-05-31T12:03:50Z</time>
      </trkpt>
      <trkpt lat="46.53253" lon="-1.33784">
        <ele>38</ele>
        <time>2021-05-31T12:04:13Z</time>
      </trkpt>
      <trkpt lat="46.53249" lon="-1.33806">
        <ele>37</ele>
        <time>2021-05-31T12:04:34Z</time>
      </trkpt>
      <trkpt lat="46.53248" lon="-1.33825">
        <ele>37</ele>
        <time>2021-05-31T12:04:52Z</time>
      </trkpt>
      <trkpt lat="46.53255" lon="-1.33852">
        <ele>36</ele>
        <time>2021-05-31T12:05:18Z</time>
      </trkpt>
      <trkpt lat="46.53283" lon="-1.33915">
        <ele>36</ele>
        <time>2021-05-31T12:06:27Z</time>
      </trkpt>
      <trkpt lat="46.53287" lon="-1.33909">
        <ele>36</ele>
        <time>2021-05-31T12:06:35Z</time>
      </trkpt>
      <trkpt lat="46.5329" lon="-1.33913">
        <ele>36</ele>
        <time>2021-05-31T12:06:40Z</time>
      </trkpt>
      <trkpt lat="46.53296" lon="-1.33983">
        <ele>36</ele>
        <time>2021-05-31T12:07:45Z</time>
      </trkpt>
      <trkpt lat="46.53295" lon="-1.34">
        <ele>37</ele>
        <time>2021-05-31T12:08:01Z</time>
      </trkpt>
      <trkpt lat="46.53291" lon="-1.34009">
        <ele>37</ele>
        <time>2021-05-31T12:08:11Z</time>
      </trkpt>
      <trkpt lat="46.5329" lon="-1.3402">
        <ele>37</ele>
        <time>2021-05-31T12:08:21Z</time>
      </trkpt>
      <trkpt lat="46.53294" lon="-1.34019">
        <ele>37</ele>
        <time>2021-05-31T12:08:26Z</time>
      </trkpt>
      <trkpt lat="46.53273" lon="-1.34082">
        <ele>39</ele>
        <time>2021-05-31T12:09:30Z</time>
      </trkpt>
      <trkpt lat="46.53272" lon="-1.34111">
        <ele>38</ele>
        <time>2021-05-31T12:09:57Z</time>
      </trkpt>
      <trkpt lat="46.53274" lon="-1.34125">
        <ele>37</ele>
        <time>2021-05-31T12:10:10Z</time>
      </trkpt>
      <trkpt lat="46.53257" lon="-1.3421">
        <ele>35</ele>
        <time>2021-05-31T12:11:31Z</time>
      </trkpt>
      <trkpt lat="46.53258" lon="-1.34215">
        <ele>35</ele>
        <time>2021-05-31T12:11:36Z</time>
      </trkpt>
      <trkpt lat="46.53269" lon="-1.34221">
        <ele>36</ele>
        <time>2021-05-31T12:11:52Z</time>
      </trkpt>
      <trkpt lat="46.53289" lon="-1.34216">
        <ele>37</ele>
        <time>2021-05-31T12:12:19Z</time>
      </trkpt>
      <trkpt lat="46.5329" lon="-1.34218">
        <ele>37</ele>
        <time>2021-05-31T12:12:21Z</time>
      </trkpt>
      <trkpt lat="46.53295" lon="-1.34217">
        <ele>37</ele>
        <time>2021-05-31T12:12:28Z</time>
      </trkpt>
      <trkpt lat="46.53312" lon="-1.34221">
        <ele>39</ele>
        <time>2021-05-31T12:12:51Z</time>
      </trkpt>
      <trkpt lat="46.5332" lon="-1.34207">
        <ele>39</ele>
        <time>2021-05-31T12:13:08Z</time>
      </trkpt>
      <trkpt lat="46.53328" lon="-1.34208">
        <ele>40</ele>
        <time>2021-05-31T12:13:18Z</time>
      </trkpt>
      <trkpt lat="46.53335" lon="-1.34205">
        <ele>40</ele>
        <time>2021-05-31T12:13:28Z</time>
      </trkpt>
      <trkpt lat="46.53359" lon="-1.34166">
        <ele>42</ele>
        <time>2021-05-31T12:14:16Z</time>
      </trkpt>
      <trkpt lat="46.53373" lon="-1.34124">
        <ele>43</ele>
        <time>2021-05-31T12:14:59Z</time>
      </trkpt>
      <trkpt lat="46.53384" lon="-1.34109">
        <ele>45</ele>
        <time>2021-05-31T12:15:19Z</time>
      </trkpt>
      <trkpt lat="46.53388" lon="-1.34099">
        <ele>46</ele>
        <time>2021-05-31T12:15:30Z</time>
      </trkpt>
      <trkpt lat="46.53378" lon="-1.34017">
        <ele>41</ele>
        <time>2021-05-31T12:16:46Z</time>
      </trkpt>
      <trkpt lat="46.53369" lon="-1.33974">
        <ele>40</ele>
        <time>2021-05-31T12:17:28Z</time>
      </trkpt>
      <trkpt lat="46.5337" lon="-1.33923">
        <ele>41</ele>
        <time>2021-05-31T12:18:14Z</time>
      </trkpt>
      <trkpt lat="46.53355" lon="-1.33898">
        <ele>39</ele>
        <time>2021-05-31T12:18:45Z</time>
      </trkpt>
      <trkpt lat="46.53341" lon="-1.33881">
        <ele>37</ele>
        <time>2021-05-31T12:19:09Z</time>
      </trkpt>
      <trkpt lat="46.53327" lon="-1.33871">
        <ele>36</ele>
        <time>2021-05-31T12:19:30Z</time>
      </trkpt>
      <trkpt lat="46.53315" lon="-1.33871">
        <ele>36</ele>
        <time>2021-05-31T12:19:46Z</time>
      </trkpt>
      <trkpt lat="46.53315" lon="-1.33876">
        <ele>36</ele>
        <time>2021-05-31T12:19:51Z</time>
      </trkpt>
      <trkpt lat="46.53311" lon="-1.3388">
        <ele>36</ele>
        <time>2021-05-31T12:19:57Z</time>
      </trkpt>
      <trkpt lat="46.53313" lon="-1.3386">
        <ele>36</ele>
        <time>2021-05-31T12:20:16Z</time>
      </trkpt>
      <trkpt lat="46.53325" lon="-1.3388">
        <ele>36</ele>
        <time>2021-05-31T12:20:40Z</time>
      </trkpt>
      <trkpt lat="46.53328" lon="-1.33893">
        <ele>36</ele>
        <time>2021-05-31T12:20:53Z</time>
      </trkpt>
      <trkpt lat="46.53327" lon="-1.33899">
        <ele>36</ele>
        <time>2021-05-31T12:20:58Z</time>
      </trkpt>
      <trkpt lat="46.53317" lon="-1.33896">
        <ele>36</ele>
        <time>2021-05-31T12:21:12Z</time>
      </trkpt>
      <trkpt lat="46.53308" lon="-1.33887">
        <ele>36</ele>
        <time>2021-05-31T12:21:26Z</time>
      </trkpt>
      <trkpt lat="46.53289" lon="-1.3389">
        <ele>36</ele>
        <time>2021-05-31T12:21:52Z</time>
      </trkpt>
      <trkpt lat="46.53283" lon="-1.33887">
        <ele>36</ele>
        <time>2021-05-31T12:22:00Z</time>
      </trkpt>
      <trkpt lat="46.53283" lon="-1.33879">
        <ele>36</ele>
        <time>2021-05-31T12:22:08Z</time>
      </trkpt>
      <trkpt lat="46.53276" lon="-1.33864">
        <ele>36</ele>
        <time>2021-05-31T12:22:24Z</time>
      </trkpt>
      <trkpt lat="46.53275" lon="-1.33825">
        <ele>36</ele>
        <time>2021-05-31T12:23:00Z</time>
      </trkpt>
      <trkpt lat="46.53289" lon="-1.33799">
        <ele>36</ele>
        <time>2021-05-31T12:23:31Z</time>
      </trkpt>
      <trkpt lat="46.53328" lon="-1.33748">
        <ele>32</ele>
        <time>2021-05-31T12:24:41Z</time>
      </trkpt>
      <trkpt lat="46.53337" lon="-1.33733">
        <ele>32</ele>
        <time>2021-05-31T12:24:59Z</time>
      </trkpt>
      <trkpt lat="46.53365" lon="-1.33714">
        <ele>33</ele>
        <time>2021-05-31T12:25:40Z</time>
      </trkpt>
      <trkpt lat="46.53381" lon="-1.337">
        <ele>32</ele>
        <time>2021-05-31T12:26:05Z</time>
      </trkpt>
      <trkpt lat="46.53416" lon="-1.33679">
        <ele>29</ele>
        <time>2021-05-31T12:26:55Z</time>
      </trkpt>
      <trkpt lat="46.53433" lon="-1.33673">
        <ele>30</ele>
        <time>2021-05-31T12:27:19Z</time>
      </trkpt>
      <trkpt lat="46.53478" lon="-1.33636">
        <ele>31</ele>
        <time>2021-05-31T12:28:28Z</time>
      </trkpt>
      <trkpt lat="46.53504" lon="-1.33608">
        <ele>28</ele>
        <time>2021-05-31T12:29:11Z</time>
      </trkpt>
      <trkpt lat="46.53517" lon="-1.33585">
        <ele>26</ele>
        <time>2021-05-31T12:29:38Z</time>
      </trkpt>
      <trkpt lat="46.53532" lon="-1.33568">
        <ele>26</ele>
        <time>2021-05-31T12:30:04Z</time>
      </trkpt>
      <trkpt lat="46.53568" lon="-1.33464">
        <ele>22</ele>
        <time>2021-05-31T12:31:51Z</time>
      </trkpt>
      <trkpt lat="46.53575" lon="-1.33458">
        <ele>21</ele>
        <time>2021-05-31T12:32:01Z</time>
      </trkpt>
      <trkpt lat="46.53588" lon="-1.3344">
        <ele>20</ele>
        <time>2021-05-31T12:32:25Z</time>
      </trkpt>
      <trkpt lat="46.53598" lon="-1.3344">
        <ele>19</ele>
        <time>2021-05-31T12:32:39Z</time>
      </trkpt>
      <trkpt lat="46.53624" lon="-1.33451">
        <ele>17</ele>
        <time>2021-05-31T12:33:15Z</time>
      </trkpt>
      <trkpt lat="46.53638" lon="-1.33462">
        <ele>17</ele>
        <time>2021-05-31T12:33:36Z</time>
      </trkpt>
      <trkpt lat="46.53655" lon="-1.33485">
        <ele>18</ele>
        <time>2021-05-31T12:34:07Z</time>
      </trkpt>
      <trkpt lat="46.53683" lon="-1.33509">
        <ele>20</ele>
        <time>2021-05-31T12:34:50Z</time>
      </trkpt>
      <trkpt lat="46.53719" lon="-1.33535">
        <ele>24</ele>
        <time>2021-05-31T12:35:44Z</time>
      </trkpt>
      <trkpt lat="46.53735" lon="-1.3354">
        <ele>23</ele>
        <time>2021-05-31T12:36:06Z</time>
      </trkpt>
      <trkpt lat="46.53748" lon="-1.33541">
        <ele>23</ele>
        <time>2021-05-31T12:36:23Z</time>
      </trkpt>
      <trkpt lat="46.53783" lon="-1.3353">
        <ele>21</ele>
        <time>2021-05-31T12:37:11Z</time>
      </trkpt>
      <trkpt lat="46.5382" lon="-1.33516">
        <ele>21</ele>
        <time>2021-05-31T12:38:02Z</time>
      </trkpt>
      <trkpt lat="46.5383" lon="-1.33507">
        <ele>20</ele>
        <time>2021-05-31T12:38:18Z</time>
      </trkpt>
      <trkpt lat="46.53868" lon="-1.33454">
        <ele>21</ele>
        <time>2021-05-31T12:39:28Z</time>
      </trkpt>
      <trkpt lat="46.53907" lon="-1.33386">
        <ele>21</ele>
        <time>2021-05-31T12:40:49Z</time>
      </trkpt>
      <trkpt lat="46.53933" lon="-1.33356">
        <ele>22</ele>
        <time>2021-05-31T12:41:34Z</time>
      </trkpt>
      <trkpt lat="46.53956" lon="-1.33322">
        <ele>24</ele>
        <time>2021-05-31T12:42:17Z</time>
      </trkpt>
      <trkpt lat="46.53978" lon="-1.33281">
        <ele>24</ele>
        <time>2021-05-31T12:43:05Z</time>
      </trkpt>
      <trkpt lat="46.53982" lon="-1.33266">
        <ele>23</ele>
        <time>2021-05-31T12:43:20Z</time>
      </trkpt>
      <trkpt lat="46.5398" lon="-1.33261">
        <ele>22</ele>
        <time>2021-05-31T12:43:25Z</time>
      </trkpt>
      <trkpt lat="46.53966" lon="-1.33255">
        <ele>19</ele>
        <time>2021-05-31T12:43:45Z</time>
      </trkpt>
      <trkpt lat="46.53933" lon="-1.33256">
        <ele>14</ele>
        <time>2021-05-31T12:44:29Z</time>
      </trkpt>
      <trkpt lat="46.53928" lon="-1.33239">
        <ele>12</ele>
        <time>2021-05-31T12:44:46Z</time>
      </trkpt>
      <trkpt lat="46.53921" lon="-1.33237">
        <ele>11</ele>
        <time>2021-05-31T12:44:55Z</time>
      </trkpt>
      <trkpt lat="46.53915" lon="-1.33229">
        <ele>10</ele>
        <time>2021-05-31T12:45:06Z</time>
      </trkpt>
      <trkpt lat="46.53915" lon="-1.33207">
        <ele>10</ele>
        <time>2021-05-31T12:45:26Z</time>
      </trkpt>
      <trkpt lat="46.53921" lon="-1.33181">
        <ele>10</ele>
        <time>2021-05-31T12:45:51Z</time>
      </trkpt>
      <trkpt lat="46.53926" lon="-1.3318">
        <ele>10</ele>
        <time>2021-05-31T12:45:58Z</time>
      </trkpt>
      <trkpt lat="46.5391" lon="-1.33176">
        <ele>9</ele>
        <time>2021-05-31T12:46:20Z</time>
      </trkpt>
      <trkpt lat="46.53903" lon="-1.33162">
        <ele>9</ele>
        <time>2021-05-31T12:46:36Z</time>
      </trkpt>
      <trkpt lat="46.53893" lon="-1.33158">
        <ele>10</ele>
        <time>2021-05-31T12:46:50Z</time>
      </trkpt>
      <trkpt lat="46.53873" lon="-1.33165">
        <ele>10</ele>
        <time>2021-05-31T12:47:17Z</time>
      </trkpt>
      <trkpt lat="46.53865" lon="-1.33151">
        <ele>10</ele>
        <time>2021-05-31T12:47:34Z</time>
      </trkpt>
      <trkpt lat="46.53867" lon="-1.33134">
        <ele>11</ele>
        <time>2021-05-31T12:47:50Z</time>
      </trkpt>
      <trkpt lat="46.53907" lon="-1.33033">
        <ele>19</ele>
        <time>2021-05-31T12:49:37Z</time>
      </trkpt>
      <trkpt lat="46.53912" lon="-1.33033">
        <ele>20</ele>
        <time>2021-05-31T12:49:43Z</time>
      </trkpt>
      <trkpt lat="46.53931" lon="-1.33057">
        <ele>17</ele>
        <time>2021-05-31T12:50:17Z</time>
      </trkpt>
      <trkpt lat="46.53969" lon="-1.33076">
        <ele>14</ele>
        <time>2021-05-31T12:51:10Z</time>
      </trkpt>
      <trkpt lat="46.53982" lon="-1.3307">
        <ele>14</ele>
        <time>2021-05-31T12:51:29Z</time>
      </trkpt>
      <trkpt lat="46.54019" lon="-1.33033">
        <ele>16</ele>
        <time>2021-05-31T12:52:29Z</time>
      </trkpt>
      <trkpt lat="46.54034" lon="-1.33025">
        <ele>16</ele>
        <time>2021-05-31T12:52:50Z</time>
      </trkpt>
      <trkpt lat="46.54072" lon="-1.33036">
        <ele>13</ele>
        <time>2021-05-31T12:53:42Z</time>
      </trkpt>
      <trkpt lat="46.54106" lon="-1.33067">
        <ele>11</ele>
        <time>2021-05-31T12:54:35Z</time>
      </trkpt>
      <trkpt lat="46.54115" lon="-1.33068">
        <ele>11</ele>
        <time>2021-05-31T12:54:47Z</time>
      </trkpt>
      <trkpt lat="46.54135" lon="-1.33058">
        <ele>13</ele>
        <time>2021-05-31T12:55:15Z</time>
      </trkpt>
      <trkpt lat="46.54149" lon="-1.33042">
        <ele>14</ele>
        <time>2021-05-31T12:55:39Z</time>
      </trkpt>
      <trkpt lat="46.54157" lon="-1.33037">
        <ele>14</ele>
        <time>2021-05-31T12:55:51Z</time>
      </trkpt>
      <trkpt lat="46.54161" lon="-1.33038">
        <ele>14</ele>
        <time>2021-05-31T12:55:56Z</time>
      </trkpt>
      <trkpt lat="46.54168" lon="-1.33044">
        <ele>14</ele>
        <time>2021-05-31T12:56:07Z</time>
      </trkpt>
      <trkpt lat="46.54176" lon="-1.33106">
        <ele>14</ele>
        <time>2021-05-31T12:57:05Z</time>
      </trkpt>
      <trkpt lat="46.54184" lon="-1.33116">
        <ele>14</ele>
        <time>2021-05-31T12:57:19Z</time>
      </trkpt>
      <trkpt lat="46.54183" lon="-1.33114">
        <ele>14</ele>
        <time>2021-05-31T12:57:21Z</time>
      </trkpt>
      <trkpt lat="46.54188" lon="-1.33115">
        <ele>14</ele>
        <time>2021-05-31T12:57:28Z</time>
      </trkpt>
      <trkpt lat="46.54225" lon="-1.33146">
        <ele>14</ele>
        <time>2021-05-31T12:58:25Z</time>
      </trkpt>
      <trkpt lat="46.54249" lon="-1.33159">
        <ele>12</ele>
        <time>2021-05-31T12:58:59Z</time>
      </trkpt>
      <trkpt lat="46.54256" lon="-1.33166">
        <ele>11</ele>
        <time>2021-05-31T12:59:11Z</time>
      </trkpt>
      <trkpt lat="46.5427" lon="-1.33163">
        <ele>12</ele>
        <time>2021-05-31T12:59:29Z</time>
      </trkpt>
      <trkpt lat="46.5428" lon="-1.33164">
        <ele>12</ele>
        <time>2021-05-31T12:59:43Z</time>
      </trkpt>
      <trkpt lat="46.54287" lon="-1.33171">
        <ele>12</ele>
        <time>2021-05-31T12:59:54Z</time>
      </trkpt>
      <trkpt lat="46.54284" lon="-1.3318">
        <ele>12</ele>
        <time>2021-05-31T13:00:03Z</time>
      </trkpt>
      <trkpt lat="46.54277" lon="-1.33187">
        <ele>12</ele>
        <time>2021-05-31T13:00:15Z</time>
      </trkpt>
      <trkpt lat="46.54289" lon="-1.3317">
        <ele>12</ele>
        <time>2021-05-31T13:00:37Z</time>
      </trkpt>
      <trkpt lat="46.543" lon="-1.33162">
        <ele>13</ele>
        <time>2021-05-31T13:00:53Z</time>
      </trkpt>
      <trkpt lat="46.54316" lon="-1.33131">
        <ele>19</ele>
        <time>2021-05-31T13:01:29Z</time>
      </trkpt>
      <trkpt lat="46.54338" lon="-1.33115">
        <ele>21</ele>
        <time>2021-05-31T13:02:02Z</time>
      </trkpt>
      <trkpt lat="46.5436" lon="-1.33108">
        <ele>22</ele>
        <time>2021-05-31T13:02:32Z</time>
      </trkpt>
      <trkpt lat="46.54378" lon="-1.33111">
        <ele>21</ele>
        <time>2021-05-31T13:02:56Z</time>
      </trkpt>
      <trkpt lat="46.54396" lon="-1.33123">
        <ele>18</ele>
        <time>2021-05-31T13:03:23Z</time>
      </trkpt>
      <trkpt lat="46.54401" lon="-1.33134">
        <ele>17</ele>
        <time>2021-05-31T13:03:35Z</time>
      </trkpt>
      <trkpt lat="46.544" lon="-1.33173">
        <ele>12</ele>
        <time>2021-05-31T13:04:10Z</time>
      </trkpt>
      <trkpt lat="46.54394" lon="-1.33142">
        <ele>16</ele>
        <time>2021-05-31T13:04:40Z</time>
      </trkpt>
      <trkpt lat="46.54396" lon="-1.33134">
        <ele>17</ele>
        <time>2021-05-31T13:04:48Z</time>
      </trkpt>
      <trkpt lat="46.544" lon="-1.3313">
        <ele>17</ele>
        <time>2021-05-31T13:04:54Z</time>
      </trkpt>
      <trkpt lat="46.54399" lon="-1.3312">
        <ele>19</ele>
        <time>2021-05-31T13:05:04Z</time>
      </trkpt>
      <trkpt lat="46.54399" lon="-1.33124">
        <ele>18</ele>
        <time>2021-05-31T13:05:07Z</time>
      </trkpt>
      <trkpt lat="46.54406" lon="-1.33129">
        <ele>17</ele>
        <time>2021-05-31T13:05:18Z</time>
      </trkpt>
      <trkpt lat="46.54405" lon="-1.33133">
        <ele>17</ele>
        <time>2021-05-31T13:05:22Z</time>
      </trkpt>
      <trkpt lat="46.54401" lon="-1.3313">
        <ele>17</ele>
        <time>2021-05-31T13:05:28Z</time>
      </trkpt>
      <trkpt lat="46.544" lon="-1.33126">
        <ele>18</ele>
        <time>2021-05-31T13:05:31Z</time>
      </trkpt>
      <trkpt lat="46.54404" lon="-1.33133">
        <ele>17</ele>
        <time>2021-05-31T13:05:40Z</time>
      </trkpt>
      <trkpt lat="46.54401" lon="-1.33133">
        <ele>17</ele>
        <time>2021-05-31T13:05:44Z</time>
      </trkpt>
      <trkpt lat="46.54401" lon="-1.33137">
        <ele>16</ele>
        <time>2021-05-31T13:05:48Z</time>
      </trkpt>
      <trkpt lat="46.54401" lon="-1.3313">
        <ele>17</ele>
        <time>2021-05-31T13:05:54Z</time>
      </trkpt>
      <trkpt lat="46.54403" lon="-1.33133">
        <ele>17</ele>
        <time>2021-05-31T13:05:58Z</time>
      </trkpt>
      <trkpt lat="46.54405" lon="-1.33132">
        <ele>17</ele>
        <time>2021-05-31T13:06:01Z</time>
      </trkpt>
      <trkpt lat="46.54405" lon="-1.3314">
        <ele>16</ele>
        <time>2021-05-31T13:06:08Z</time>
      </trkpt>
      <trkpt lat="46.54404" lon="-1.3313">
        <ele>17</ele>
        <time>2021-05-31T13:06:17Z</time>
      </trkpt>
      <trkpt lat="46.54406" lon="-1.33129">
        <ele>17</ele>
        <time>2021-05-31T13:06:20Z</time>
      </trkpt>
      <trkpt lat="46.544" lon="-1.33125">
        <ele>18</ele>
        <time>2021-05-31T13:06:29Z</time>
      </trkpt>
      <trkpt lat="46.54399" lon="-1.3313">
        <ele>17</ele>
        <time>2021-05-31T13:06:34Z</time>
      </trkpt>
      <trkpt lat="46.54401" lon="-1.33125">
        <ele>18</ele>
        <time>2021-05-31T13:06:39Z</time>
      </trkpt>
      <trkpt lat="46.54437" lon="-1.33168">
        <ele>15</ele>
        <time>2021-05-31T13:07:41Z</time>
      </trkpt>
      <trkpt lat="46.54452" lon="-1.3321">
        <ele>16</ele>
        <time>2021-05-31T13:08:25Z</time>
      </trkpt>
      <trkpt lat="46.54455" lon="-1.33222">
        <ele>16</ele>
        <time>2021-05-31T13:08:36Z</time>
      </trkpt>
      <trkpt lat="46.54451" lon="-1.33258">
        <ele>16</ele>
        <time>2021-05-31T13:09:10Z</time>
      </trkpt>
      <trkpt lat="46.54457" lon="-1.33272">
        <ele>17</ele>
        <time>2021-05-31T13:09:25Z</time>
      </trkpt>
      <trkpt lat="46.54457" lon="-1.33339">
        <ele>19</ele>
        <time>2021-05-31T13:10:26Z</time>
      </trkpt>
      <trkpt lat="46.54462" lon="-1.33364">
        <ele>19</ele>
        <time>2021-05-31T13:10:50Z</time>
      </trkpt>
      <trkpt lat="46.54471" lon="-1.33372">
        <ele>19</ele>
        <time>2021-05-31T13:11:04Z</time>
      </trkpt>
      <trkpt lat="46.54483" lon="-1.3337">
        <ele>17</ele>
        <time>2021-05-31T13:11:20Z</time>
      </trkpt>
      <trkpt lat="46.54492" lon="-1.3338">
        <ele>16</ele>
        <time>2021-05-31T13:11:36Z</time>
      </trkpt>
      <trkpt lat="46.54499" lon="-1.33382">
        <ele>15</ele>
        <time>2021-05-31T13:11:45Z</time>
      </trkpt>
      <trkpt lat="46.5452" lon="-1.33367">
        <ele>17</ele>
        <time>2021-05-31T13:12:16Z</time>
      </trkpt>
      <trkpt lat="46.54525" lon="-1.33367">
        <ele>18</ele>
        <time>2021-05-31T13:12:23Z</time>
      </trkpt>
      <trkpt lat="46.54527" lon="-1.33346">
        <ele>19</ele>
        <time>2021-05-31T13:12:42Z</time>
      </trkpt>
      <trkpt lat="46.54555" lon="-1.33376">
        <ele>21</ele>
        <time>2021-05-31T13:13:29Z</time>
      </trkpt>
      <trkpt lat="46.54575" lon="-1.33387">
        <ele>23</ele>
        <time>2021-05-31T13:13:57Z</time>
      </trkpt>
      <trkpt lat="46.54584" lon="-1.33389">
        <ele>23</ele>
        <time>2021-05-31T13:14:10Z</time>
      </trkpt>
      <trkpt lat="46.54597" lon="-1.33384">
        <ele>25</ele>
        <time>2021-05-31T13:14:27Z</time>
      </trkpt>
      <trkpt lat="46.54604" lon="-1.33387">
        <ele>26</ele>
        <time>2021-05-31T13:14:37Z</time>
      </trkpt>
      <trkpt lat="46.54602" lon="-1.33373">
        <ele>27</ele>
        <time>2021-05-31T13:14:50Z</time>
      </trkpt>
      <trkpt lat="46.54636" lon="-1.33366">
        <ele>31</ele>
        <time>2021-05-31T13:15:36Z</time>
      </trkpt>
      <trkpt lat="46.54649" lon="-1.33357">
        <ele>33</ele>
        <time>2021-05-31T13:15:55Z</time>
      </trkpt>
      <trkpt lat="46.54663" lon="-1.33354">
        <ele>35</ele>
        <time>2021-05-31T13:16:14Z</time>
      </trkpt>
      <trkpt lat="46.54688" lon="-1.33357">
        <ele>35</ele>
        <time>2021-05-31T13:16:48Z</time>
      </trkpt>
      <trkpt lat="46.54686" lon="-1.33359">
        <ele>35</ele>
        <time>2021-05-31T13:16:51Z</time>
      </trkpt>
      <trkpt lat="46.54698" lon="-1.33364">
        <ele>35</ele>
        <time>2021-05-31T13:17:08Z</time>
      </trkpt>
      <trkpt lat="46.54693" lon="-1.33364">
        <ele>35</ele>
        <time>2021-05-31T13:17:14Z</time>
      </trkpt>
      <trkpt lat="46.54694" lon="-1.33359">
        <ele>35</ele>
        <time>2021-05-31T13:17:19Z</time>
      </trkpt>
      <trkpt lat="46.54682" lon="-1.33348">
        <ele>35</ele>
        <time>2021-05-31T13:17:38Z</time>
      </trkpt>
      <trkpt lat="46.54668" lon="-1.33344">
        <ele>36</ele>
        <time>2021-05-31T13:17:57Z</time>
      </trkpt>
      <trkpt lat="46.54646" lon="-1.3335">
        <ele>33</ele>
        <time>2021-05-31T13:18:27Z</time>
      </trkpt>
      <trkpt lat="46.5462" lon="-1.33361">
        <ele>30</ele>
        <time>2021-05-31T13:19:03Z</time>
      </trkpt>
      <trkpt lat="46.54605" lon="-1.33371">
        <ele>27</ele>
        <time>2021-05-31T13:19:25Z</time>
      </trkpt>
      <trkpt lat="46.54587" lon="-1.33372">
        <ele>25</ele>
        <time>2021-05-31T13:19:49Z</time>
      </trkpt>
      <trkpt lat="46.54569" lon="-1.33368">
        <ele>23</ele>
        <time>2021-05-31T13:20:13Z</time>
      </trkpt>
      <trkpt lat="46.54547" lon="-1.33355">
        <ele>21</ele>
        <time>2021-05-31T13:20:45Z</time>
      </trkpt>
      <trkpt lat="46.54533" lon="-1.33341">
        <ele>20</ele>
        <time>2021-05-31T13:21:08Z</time>
      </trkpt>
      <trkpt lat="46.54527" lon="-1.33338">
        <ele>19</ele>
        <time>2021-05-31T13:21:16Z</time>
      </trkpt>
      <trkpt lat="46.54524" lon="-1.33353">
        <ele>18</ele>
        <time>2021-05-31T13:21:31Z</time>
      </trkpt>
      <trkpt lat="46.54527" lon="-1.33372">
        <ele>18</ele>
        <time>2021-05-31T13:21:48Z</time>
      </trkpt>
      <trkpt lat="46.5452" lon="-1.33375">
        <ele>17</ele>
        <time>2021-05-31T13:21:58Z</time>
      </trkpt>
      <trkpt lat="46.54514" lon="-1.3337">
        <ele>17</ele>
        <time>2021-05-31T13:22:07Z</time>
      </trkpt>
      <trkpt lat="46.54505" lon="-1.33388">
        <ele>16</ele>
        <time>2021-05-31T13:22:28Z</time>
      </trkpt>
      <trkpt lat="46.54512" lon="-1.33398">
        <ele>16</ele>
        <time>2021-05-31T13:22:41Z</time>
      </trkpt>
      <trkpt lat="46.54507" lon="-1.33407">
        <ele>16</ele>
        <time>2021-05-31T13:22:52Z</time>
      </trkpt>
      <trkpt lat="46.54509" lon="-1.33412">
        <ele>16</ele>
        <time>2021-05-31T13:22:57Z</time>
      </trkpt>
      <trkpt lat="46.54506" lon="-1.33427">
        <ele>17</ele>
        <time>2021-05-31T13:23:11Z</time>
      </trkpt>
      <trkpt lat="46.54511" lon="-1.33407">
        <ele>16</ele>
        <time>2021-05-31T13:23:31Z</time>
      </trkpt>
      <trkpt lat="46.54517" lon="-1.33406">
        <ele>16</ele>
        <time>2021-05-31T13:23:39Z</time>
      </trkpt>
      <trkpt lat="46.54533" lon="-1.33414">
        <ele>17</ele>
        <time>2021-05-31T13:24:01Z</time>
      </trkpt>
      <trkpt lat="46.5454" lon="-1.33406">
        <ele>18</ele>
        <time>2021-05-31T13:24:13Z</time>
      </trkpt>
      <trkpt lat="46.54551" lon="-1.33412">
        <ele>19</ele>
        <time>2021-05-31T13:24:29Z</time>
      </trkpt>
      <trkpt lat="46.5456" lon="-1.33424">
        <ele>19</ele>
        <time>2021-05-31T13:24:45Z</time>
      </trkpt>
      <trkpt lat="46.54571" lon="-1.33449">
        <ele>19</ele>
        <time>2021-05-31T13:25:13Z</time>
      </trkpt>
      <trkpt lat="46.54597" lon="-1.33482">
        <ele>20</ele>
        <time>2021-05-31T13:25:59Z</time>
      </trkpt>
      <trkpt lat="46.54604" lon="-1.33496">
        <ele>20</ele>
        <time>2021-05-31T13:26:14Z</time>
      </trkpt>
      <trkpt lat="46.54621" lon="-1.33551">
        <ele>22</ele>
        <time>2021-05-31T13:27:10Z</time>
      </trkpt>
      <trkpt lat="46.54618" lon="-1.33565">
        <ele>22</ele>
        <time>2021-05-31T13:27:23Z</time>
      </trkpt>
      <trkpt lat="46.54619" lon="-1.33578">
        <ele>22</ele>
        <time>2021-05-31T13:27:35Z</time>
      </trkpt>
      <trkpt lat="46.54617" lon="-1.3359">
        <ele>22</ele>
        <time>2021-05-31T13:27:47Z</time>
      </trkpt>
      <trkpt lat="46.54621" lon="-1.33612">
        <ele>23</ele>
        <time>2021-05-31T13:28:07Z</time>
      </trkpt>
      <trkpt lat="46.54628" lon="-1.33624">
        <ele>23</ele>
        <time>2021-05-31T13:28:22Z</time>
      </trkpt>
      <trkpt lat="46.54628" lon="-1.33633">
        <ele>23</ele>
        <time>2021-05-31T13:28:30Z</time>
      </trkpt>
      <trkpt lat="46.54632" lon="-1.33639">
        <ele>24</ele>
        <time>2021-05-31T13:28:38Z</time>
      </trkpt>
      <trkpt lat="46.54631" lon="-1.3365">
        <ele>24</ele>
        <time>2021-05-31T13:28:48Z</time>
      </trkpt>
      <trkpt lat="46.54637" lon="-1.33661">
        <ele>24</ele>
        <time>2021-05-31T13:29:01Z</time>
      </trkpt>
      <trkpt lat="46.54636" lon="-1.33677">
        <ele>24</ele>
        <time>2021-05-31T13:29:16Z</time>
      </trkpt>
      <trkpt lat="46.54633" lon="-1.33682">
        <ele>24</ele>
        <time>2021-05-31T13:29:22Z</time>
      </trkpt>
      <trkpt lat="46.54624" lon="-1.33683">
        <ele>25</ele>
        <time>2021-05-31T13:29:34Z</time>
      </trkpt>
      <trkpt lat="46.54649" lon="-1.33702">
        <ele>23</ele>
        <time>2021-05-31T13:30:11Z</time>
      </trkpt>
      <trkpt lat="46.54657" lon="-1.33721">
        <ele>22</ele>
        <time>2021-05-31T13:30:32Z</time>
      </trkpt>
      <trkpt lat="46.54656" lon="-1.33742">
        <ele>22</ele>
        <time>2021-05-31T13:30:51Z</time>
      </trkpt>
      <trkpt lat="46.54666" lon="-1.33771">
        <ele>20</ele>
        <time>2021-05-31T13:31:21Z</time>
      </trkpt>
      <trkpt lat="46.5466" lon="-1.33791">
        <ele>20</ele>
        <time>2021-05-31T13:31:41Z</time>
      </trkpt>
      <trkpt lat="46.54651" lon="-1.33807">
        <ele>21</ele>
        <time>2021-05-31T13:32:00Z</time>
      </trkpt>
      <trkpt lat="46.54651" lon="-1.33826">
        <ele>21</ele>
        <time>2021-05-31T13:32:17Z</time>
      </trkpt>
      <trkpt lat="46.54657" lon="-1.33842">
        <ele>20</ele>
        <time>2021-05-31T13:32:34Z</time>
      </trkpt>
      <trkpt lat="46.54669" lon="-1.3386">
        <ele>19</ele>
        <time>2021-05-31T13:32:57Z</time>
      </trkpt>
      <trkpt lat="46.54677" lon="-1.3388">
        <ele>20</ele>
        <time>2021-05-31T13:33:18Z</time>
      </trkpt>
      <trkpt lat="46.54684" lon="-1.33922">
        <ele>20</ele>
        <time>2021-05-31T13:33:58Z</time>
      </trkpt>
      <trkpt lat="46.54696" lon="-1.33952">
        <ele>21</ele>
        <time>2021-05-31T13:34:30Z</time>
      </trkpt>
      <trkpt lat="46.5471" lon="-1.33972">
        <ele>22</ele>
        <time>2021-05-31T13:34:56Z</time>
      </trkpt>
      <trkpt lat="46.54722" lon="-1.33983">
        <ele>22</ele>
        <time>2021-05-31T13:35:15Z</time>
      </trkpt>
      <trkpt lat="46.54733" lon="-1.34017">
        <ele>22</ele>
        <time>2021-05-31T13:35:50Z</time>
      </trkpt>
      <trkpt lat="46.54733" lon="-1.34031">
        <ele>22</ele>
        <time>2021-05-31T13:36:02Z</time>
      </trkpt>
      <trkpt lat="46.54726" lon="-1.34028">
        <ele>22</ele>
        <time>2021-05-31T13:36:12Z</time>
      </trkpt>
      <trkpt lat="46.54738" lon="-1.34042">
        <ele>22</ele>
        <time>2021-05-31T13:36:33Z</time>
      </trkpt>
      <trkpt lat="46.54752" lon="-1.34052">
        <ele>21</ele>
        <time>2021-05-31T13:36:53Z</time>
      </trkpt>
      <trkpt lat="46.54757" lon="-1.34061">
        <ele>21</ele>
        <time>2021-05-31T13:37:04Z</time>
      </trkpt>
      <trkpt lat="46.54763" lon="-1.34058">
        <ele>21</ele>
        <time>2021-05-31T13:37:13Z</time>
      </trkpt>
      <trkpt lat="46.54765" lon="-1.34061">
        <ele>21</ele>
        <time>2021-05-31T13:37:16Z</time>
      </trkpt>
      <trkpt lat="46.54768" lon="-1.34059">
        <ele>21</ele>
        <time>2021-05-31T13:37:21Z</time>
      </trkpt>
      <trkpt lat="46.54877" lon="-1.3411">
        <ele>24</ele>
        <time>2021-05-31T13:39:54Z</time>
      </trkpt>
      <trkpt lat="46.54895" lon="-1.34125">
        <ele>25</ele>
        <time>2021-05-31T13:40:21Z</time>
      </trkpt>
      <trkpt lat="46.54912" lon="-1.34145">
        <ele>24</ele>
        <time>2021-05-31T13:40:50Z</time>
      </trkpt>
      <trkpt lat="46.54928" lon="-1.34156">
        <ele>24</ele>
        <time>2021-05-31T13:41:14Z</time>
      </trkpt>
      <trkpt lat="46.54929" lon="-1.3416">
        <ele>24</ele>
        <time>2021-05-31T13:41:18Z</time>
      </trkpt>
      <trkpt lat="46.54971" lon="-1.34175">
        <ele>26</ele>
        <time>2021-05-31T13:42:16Z</time>
      </trkpt>
      <trkpt lat="46.55017" lon="-1.34172">
        <ele>26</ele>
        <time>2021-05-31T13:43:17Z</time>
      </trkpt>
      <trkpt lat="46.55039" lon="-1.34164">
        <ele>25</ele>
        <time>2021-05-31T13:43:47Z</time>
      </trkpt>
      <trkpt lat="46.55058" lon="-1.34163">
        <ele>25</ele>
        <time>2021-05-31T13:44:13Z</time>
      </trkpt>
      <trkpt lat="46.55095" lon="-1.34166">
        <ele>24</ele>
        <time>2021-05-31T13:45:02Z</time>
      </trkpt>
      <trkpt lat="46.55131" lon="-1.34152">
        <ele>25</ele>
        <time>2021-05-31T13:45:52Z</time>
      </trkpt>
      <trkpt lat="46.5516" lon="-1.34147">
        <ele>25</ele>
        <time>2021-05-31T13:46:31Z</time>
      </trkpt>
      <trkpt lat="46.55173" lon="-1.34141">
        <ele>25</ele>
        <time>2021-05-31T13:46:49Z</time>
      </trkpt>
      <trkpt lat="46.55188" lon="-1.34142">
        <ele>25</ele>
        <time>2021-05-31T13:47:09Z</time>
      </trkpt>
      <trkpt lat="46.552" lon="-1.34138">
        <ele>26</ele>
        <time>2021-05-31T13:47:26Z</time>
      </trkpt>
      <trkpt lat="46.55226" lon="-1.3414">
        <ele>25</ele>
        <time>2021-05-31T13:48:00Z</time>
      </trkpt>
      <trkpt lat="46.55244" lon="-1.34131">
        <ele>27</ele>
        <time>2021-05-31T13:48:26Z</time>
      </trkpt>
      <trkpt lat="46.55249" lon="-1.34137">
        <ele>26</ele>
        <time>2021-05-31T13:48:34Z</time>
      </trkpt>
      <trkpt lat="46.55246" lon="-1.34138">
        <ele>26</ele>
        <time>2021-05-31T13:48:38Z</time>
      </trkpt>
      <trkpt lat="46.55265" lon="-1.34117">
        <ele>29</ele>
        <time>2021-05-31T13:49:10Z</time>
      </trkpt>
      <trkpt lat="46.55281" lon="-1.34112">
        <ele>29</ele>
        <time>2021-05-31T13:49:32Z</time>
      </trkpt>
      <trkpt lat="46.55314" lon="-1.34117">
        <ele>29</ele>
        <time>2021-05-31T13:50:16Z</time>
      </trkpt>
      <trkpt lat="46.55342" lon="-1.34116">
        <ele>29</ele>
        <time>2021-05-31T13:50:54Z</time>
      </trkpt>
      <trkpt lat="46.55381" lon="-1.34092">
        <ele>34</ele>
        <time>2021-05-31T13:51:50Z</time>
      </trkpt>
      <trkpt lat="46.55402" lon="-1.34084">
        <ele>37</ele>
        <time>2021-05-31T13:52:19Z</time>
      </trkpt>
      <trkpt lat="46.55406" lon="-1.34086">
        <ele>37</ele>
        <time>2021-05-31T13:52:25Z</time>
      </trkpt>
      <trkpt lat="46.55414" lon="-1.34097">
        <ele>37</ele>
        <time>2021-05-31T13:52:40Z</time>
      </trkpt>
      <trkpt lat="46.55402" lon="-1.34108">
        <ele>35</ele>
        <time>2021-05-31T13:52:59Z</time>
      </trkpt>
      <trkpt lat="46.55391" lon="-1.34131">
        <ele>32</ele>
        <time>2021-05-31T13:53:24Z</time>
      </trkpt>
      <trkpt lat="46.55388" lon="-1.34153">
        <ele>31</ele>
        <time>2021-05-31T13:53:45Z</time>
      </trkpt>
      <trkpt lat="46.55396" lon="-1.34173">
        <ele>30</ele>
        <time>2021-05-31T13:54:06Z</time>
      </trkpt>
      <trkpt lat="46.55412" lon="-1.34194">
        <ele>30</ele>
        <time>2021-05-31T13:54:35Z</time>
      </trkpt>
      <trkpt lat="46.55476" lon="-1.34213">
        <ele>31</ele>
        <time>2021-05-31T13:56:02Z</time>
      </trkpt>
      <trkpt lat="46.5551" lon="-1.34235">
        <ele>29</ele>
        <time>2021-05-31T13:56:52Z</time>
      </trkpt>
      <trkpt lat="46.55529" lon="-1.34256">
        <ele>28</ele>
        <time>2021-05-31T13:57:24Z</time>
      </trkpt>
      <trkpt lat="46.55528" lon="-1.34265">
        <ele>28</ele>
        <time>2021-05-31T13:57:32Z</time>
      </trkpt>
      <trkpt lat="46.55526" lon="-1.34265">
        <ele>27</ele>
        <time>2021-05-31T13:57:35Z</time>
      </trkpt>
      <trkpt lat="46.55529" lon="-1.3427">
        <ele>27</ele>
        <time>2021-05-31T13:57:41Z</time>
      </trkpt>
      <trkpt lat="46.55539" lon="-1.34276">
        <ele>27</ele>
        <time>2021-05-31T13:57:55Z</time>
      </trkpt>
      <trkpt lat="46.55543" lon="-1.34274">
        <ele>28</ele>
        <time>2021-05-31T13:58:01Z</time>
      </trkpt>
      <trkpt lat="46.55572" lon="-1.34233">
        <ele>33</ele>
        <time>2021-05-31T13:58:55Z</time>
      </trkpt>
      <trkpt lat="46.55585" lon="-1.34231">
        <ele>33</ele>
        <time>2021-05-31T13:59:12Z</time>
      </trkpt>
      <trkpt lat="46.55621" lon="-1.3426">
        <ele>33</ele>
        <time>2021-05-31T14:00:07Z</time>
      </trkpt>
      <trkpt lat="46.55642" lon="-1.34268">
        <ele>33</ele>
        <time>2021-05-31T14:00:36Z</time>
      </trkpt>
      <trkpt lat="46.55689" lon="-1.34268">
        <ele>35</ele>
        <time>2021-05-31T14:01:39Z</time>
      </trkpt>
      <trkpt lat="46.55692" lon="-1.3427">
        <ele>35</ele>
        <time>2021-05-31T14:01:43Z</time>
      </trkpt>
      <trkpt lat="46.55709" lon="-1.343">
        <ele>34</ele>
        <time>2021-05-31T14:02:19Z</time>
      </trkpt>
      <trkpt lat="46.55743" lon="-1.34341">
        <ele>35</ele>
        <time>2021-05-31T14:03:18Z</time>
      </trkpt>
      <trkpt lat="46.55754" lon="-1.34359">
        <ele>35</ele>
        <time>2021-05-31T14:03:40Z</time>
      </trkpt>
      <trkpt lat="46.55765" lon="-1.34384">
        <ele>35</ele>
        <time>2021-05-31T14:04:07Z</time>
      </trkpt>
      <trkpt lat="46.55768" lon="-1.34406">
        <ele>36</ele>
        <time>2021-05-31T14:04:28Z</time>
      </trkpt>
      <trkpt lat="46.55745" lon="-1.34447">
        <ele>33</ele>
        <time>2021-05-31T14:05:16Z</time>
      </trkpt>
      <trkpt lat="46.55744" lon="-1.34453">
        <ele>33</ele>
        <time>2021-05-31T14:05:22Z</time>
      </trkpt>
      <trkpt lat="46.55752" lon="-1.34486">
        <ele>33</ele>
        <time>2021-05-31T14:05:54Z</time>
      </trkpt>
      <trkpt lat="46.55764" lon="-1.34511">
        <ele>33</ele>
        <time>2021-05-31T14:06:22Z</time>
      </trkpt>
      <trkpt lat="46.55788" lon="-1.34542">
        <ele>34</ele>
        <time>2021-05-31T14:07:05Z</time>
      </trkpt>
      <trkpt lat="46.55824" lon="-1.34601">
        <ele>33</ele>
        <time>2021-05-31T14:08:17Z</time>
      </trkpt>
      <trkpt lat="46.55854" lon="-1.34678">
        <ele>30</ele>
        <time>2021-05-31T14:09:38Z</time>
      </trkpt>
      <trkpt lat="46.55887" lon="-1.34708">
        <ele>31</ele>
        <time>2021-05-31T14:10:30Z</time>
      </trkpt>
      <trkpt lat="46.55928" lon="-1.34739">
        <ele>30</ele>
        <time>2021-05-31T14:11:32Z</time>
      </trkpt>
      <trkpt lat="46.55936" lon="-1.34741">
        <ele>30</ele>
        <time>2021-05-31T14:11:43Z</time>
      </trkpt>
      <trkpt lat="46.55952" lon="-1.34757">
        <ele>30</ele>
        <time>2021-05-31T14:12:09Z</time>
      </trkpt>
      <trkpt lat="46.55959" lon="-1.3479">
        <ele>28</ele>
        <time>2021-05-31T14:12:40Z</time>
      </trkpt>
      <trkpt lat="46.55971" lon="-1.34825">
        <ele>26</ele>
        <time>2021-05-31T14:13:16Z</time>
      </trkpt>
      <trkpt lat="46.55982" lon="-1.34848">
        <ele>26</ele>
        <time>2021-05-31T14:13:42Z</time>
      </trkpt>
      <trkpt lat="46.55996" lon="-1.34866">
        <ele>26</ele>
        <time>2021-05-31T14:14:07Z</time>
      </trkpt>
      <trkpt lat="46.56029" lon="-1.349">
        <ele>27</ele>
        <time>2021-05-31T14:15:01Z</time>
      </trkpt>
      <trkpt lat="46.5605" lon="-1.34918">
        <ele>27</ele>
        <time>2021-05-31T14:15:33Z</time>
      </trkpt>
      <trkpt lat="46.56074" lon="-1.34934">
        <ele>27</ele>
        <time>2021-05-31T14:16:09Z</time>
      </trkpt>
      <trkpt lat="46.56116" lon="-1.34959">
        <ele>27</ele>
        <time>2021-05-31T14:17:09Z</time>
      </trkpt>
      <trkpt lat="46.56163" lon="-1.34974">
        <ele>27</ele>
        <time>2021-05-31T14:18:13Z</time>
      </trkpt>
      <trkpt lat="46.56187" lon="-1.34979">
        <ele>28</ele>
        <time>2021-05-31T14:18:46Z</time>
      </trkpt>
      <trkpt lat="46.56212" lon="-1.34971">
        <ele>30</ele>
        <time>2021-05-31T14:19:20Z</time>
      </trkpt>
      <trkpt lat="46.56227" lon="-1.34963">
        <ele>31</ele>
        <time>2021-05-31T14:19:41Z</time>
      </trkpt>
      <trkpt lat="46.56242" lon="-1.34946">
        <ele>32</ele>
        <time>2021-05-31T14:20:07Z</time>
      </trkpt>
      <trkpt lat="46.56258" lon="-1.34862">
        <ele>35</ele>
        <time>2021-05-31T14:21:27Z</time>
      </trkpt>
      <trkpt lat="46.56271" lon="-1.34836">
        <ele>37</ele>
        <time>2021-05-31T14:21:56Z</time>
      </trkpt>
      <trkpt lat="46.56342" lon="-1.34755">
        <ele>38</ele>
        <time>2021-05-31T14:23:57Z</time>
      </trkpt>
      <trkpt lat="46.56383" lon="-1.34719">
        <ele>40</ele>
        <time>2021-05-31T14:25:00Z</time>
      </trkpt>
      <trkpt lat="46.56392" lon="-1.34718">
        <ele>40</ele>
        <time>2021-05-31T14:25:13Z</time>
      </trkpt>
      <trkpt lat="46.56407" lon="-1.34735">
        <ele>40</ele>
        <time>2021-05-31T14:25:38Z</time>
      </trkpt>
      <trkpt lat="46.56451" lon="-1.34804">
        <ele>41</ele>
        <time>2021-05-31T14:27:04Z</time>
      </trkpt>
      <trkpt lat="46.56475" lon="-1.34833">
        <ele>41</ele>
        <time>2021-05-31T14:27:46Z</time>
      </trkpt>
      <trkpt lat="46.56533" lon="-1.34848">
        <ele>42</ele>
        <time>2021-05-31T14:29:04Z</time>
      </trkpt>
      <trkpt lat="46.56542" lon="-1.34854">
        <ele>42</ele>
        <time>2021-05-31T14:29:18Z</time>
      </trkpt>
      <trkpt lat="46.56575" lon="-1.34894">
        <ele>42</ele>
        <time>2021-05-31T14:30:15Z</time>
      </trkpt>
      <trkpt lat="46.56593" lon="-1.34923">
        <ele>41</ele>
        <time>2021-05-31T14:30:51Z</time>
      </trkpt>
      <trkpt lat="46.5661" lon="-1.34943">
        <ele>39</ele>
        <time>2021-05-31T14:31:20Z</time>
      </trkpt>
      <trkpt lat="46.56627" lon="-1.34958">
        <ele>38</ele>
        <time>2021-05-31T14:31:47Z</time>
      </trkpt>
      <trkpt lat="46.56646" lon="-1.34966">
        <ele>38</ele>
        <time>2021-05-31T14:32:13Z</time>
      </trkpt>
      <trkpt lat="46.56671" lon="-1.3496">
        <ele>39</ele>
        <time>2021-05-31T14:32:47Z</time>
      </trkpt>
      <trkpt lat="46.56692" lon="-1.3496">
        <ele>38</ele>
        <time>2021-05-31T14:33:15Z</time>
      </trkpt>
      <trkpt lat="46.56718" lon="-1.34971">
        <ele>37</ele>
        <time>2021-05-31T14:33:51Z</time>
      </trkpt>
      <trkpt lat="46.5673" lon="-1.34988">
        <ele>35</ele>
        <time>2021-05-31T14:34:13Z</time>
      </trkpt>
      <trkpt lat="46.56744" lon="-1.34986">
        <ele>34</ele>
        <time>2021-05-31T14:34:32Z</time>
      </trkpt>
      <trkpt lat="46.56755" lon="-1.34997">
        <ele>33</ele>
        <time>2021-05-31T14:34:50Z</time>
      </trkpt>
      <trkpt lat="46.56776" lon="-1.3506">
        <ele>30</ele>
        <time>2021-05-31T14:35:54Z</time>
      </trkpt>
      <trkpt lat="46.56809" lon="-1.35103">
        <ele>31</ele>
        <time>2021-05-31T14:36:53Z</time>
      </trkpt>
      <trkpt lat="46.56817" lon="-1.35108">
        <ele>32</ele>
        <time>2021-05-31T14:37:05Z</time>
      </trkpt>
      <trkpt lat="46.5683" lon="-1.35124">
        <ele>33</ele>
        <time>2021-05-31T14:37:28Z</time>
      </trkpt>
      <trkpt lat="46.56851" lon="-1.35137">
        <ele>35</ele>
        <time>2021-05-31T14:37:58Z</time>
      </trkpt>
      <trkpt lat="46.56869" lon="-1.35115">
        <ele>36</ele>
        <time>2021-05-31T14:38:29Z</time>
      </trkpt>
      <trkpt lat="46.56873" lon="-1.35113">
        <ele>37</ele>
        <time>2021-05-31T14:38:35Z</time>
      </trkpt>
      <trkpt lat="46.56894" lon="-1.35159">
        <ele>40</ele>
        <time>2021-05-31T14:39:26Z</time>
      </trkpt>
      <trkpt lat="46.56893" lon="-1.35168">
        <ele>40</ele>
        <time>2021-05-31T14:39:34Z</time>
      </trkpt>
      <trkpt lat="46.56911" lon="-1.35199">
        <ele>41</ele>
        <time>2021-05-31T14:40:11Z</time>
      </trkpt>
      <trkpt lat="46.56907" lon="-1.35229">
        <ele>40</ele>
        <time>2021-05-31T14:40:39Z</time>
      </trkpt>
      <trkpt lat="46.56909" lon="-1.35239">
        <ele>40</ele>
        <time>2021-05-31T14:40:49Z</time>
      </trkpt>
      <trkpt lat="46.56921" lon="-1.35261">
        <ele>40</ele>
        <time>2021-05-31T14:41:15Z</time>
      </trkpt>
      <trkpt lat="46.56942" lon="-1.35322">
        <ele>40</ele>
        <time>2021-05-31T14:42:17Z</time>
      </trkpt>
      <trkpt lat="46.56959" lon="-1.35346">
        <ele>41</ele>
        <time>2021-05-31T14:42:49Z</time>
      </trkpt>
      <trkpt lat="46.56977" lon="-1.35335">
        <ele>42</ele>
        <time>2021-05-31T14:43:15Z</time>
      </trkpt>
      <trkpt lat="46.5702" lon="-1.35298">
        <ele>43</ele>
        <time>2021-05-31T14:44:22Z</time>
      </trkpt>
      <trkpt lat="46.57077" lon="-1.35266">
        <ele>44</ele>
        <time>2021-05-31T14:45:43Z</time>
      </trkpt>
      <trkpt lat="46.57126" lon="-1.35251">
        <ele>45</ele>
        <time>2021-05-31T14:46:50Z</time>
      </trkpt>
      <trkpt lat="46.57148" lon="-1.35249">
        <ele>45</ele>
        <time>2021-05-31T14:47:19Z</time>
      </trkpt>
      <trkpt lat="46.57159" lon="-1.35262">
        <ele>45</ele>
        <time>2021-05-31T14:47:38Z</time>
      </trkpt>
      <trkpt lat="46.57174" lon="-1.35305">
        <ele>46</ele>
        <time>2021-05-31T14:48:23Z</time>
      </trkpt>
      <trkpt lat="46.57175" lon="-1.3533">
        <ele>46</ele>
        <time>2021-05-31T14:48:45Z</time>
      </trkpt>
      <trkpt lat="46.5719" lon="-1.3538">
        <ele>46</ele>
        <time>2021-05-31T14:49:36Z</time>
      </trkpt>
      <trkpt lat="46.57196" lon="-1.35424">
        <ele>46</ele>
        <time>2021-05-31T14:50:17Z</time>
      </trkpt>
      <trkpt lat="46.57213" lon="-1.35503">
        <ele>42</ele>
        <time>2021-05-31T14:51:33Z</time>
      </trkpt>
      <trkpt lat="46.57219" lon="-1.35521">
        <ele>40</ele>
        <time>2021-05-31T14:51:51Z</time>
      </trkpt>
      <trkpt lat="46.57234" lon="-1.35522">
        <ele>39</ele>
        <time>2021-05-31T14:52:11Z</time>
      </trkpt>
      <trkpt lat="46.57255" lon="-1.3553">
        <ele>38</ele>
        <time>2021-05-31T14:52:40Z</time>
      </trkpt>
      <trkpt lat="46.57284" lon="-1.3553">
        <ele>36</ele>
        <time>2021-05-31T14:53:19Z</time>
      </trkpt>
      <trkpt lat="46.57304" lon="-1.35524">
        <ele>35</ele>
        <time>2021-05-31T14:53:46Z</time>
      </trkpt>
      <trkpt lat="46.57357" lon="-1.35481">
        <ele>36</ele>
        <time>2021-05-31T14:55:07Z</time>
      </trkpt>
      <trkpt lat="46.57414" lon="-1.35412">
        <ele>39</ele>
        <time>2021-05-31T14:56:46Z</time>
      </trkpt>
      <trkpt lat="46.57426" lon="-1.35401">
        <ele>39</ele>
        <time>2021-05-31T14:57:05Z</time>
      </trkpt>
      <trkpt lat="46.5745" lon="-1.35392">
        <ele>38</ele>
        <time>2021-05-31T14:57:38Z</time>
      </trkpt>
      <trkpt lat="46.57453" lon="-1.35387">
        <ele>39</ele>
        <time>2021-05-31T14:57:44Z</time>
      </trkpt>
      <trkpt lat="46.57459" lon="-1.35384">
        <ele>39</ele>
        <time>2021-05-31T14:57:52Z</time>
      </trkpt>
      <trkpt lat="46.57461" lon="-1.35392">
        <ele>38</ele>
        <time>2021-05-31T14:58:00Z</time>
      </trkpt>
      <trkpt lat="46.57464" lon="-1.35393">
        <ele>37</ele>
        <time>2021-05-31T14:58:04Z</time>
      </trkpt>
      <trkpt lat="46.57461" lon="-1.354">
        <ele>36</ele>
        <time>2021-05-31T14:58:12Z</time>
      </trkpt>
      <trkpt lat="46.57463" lon="-1.35402">
        <ele>36</ele>
        <time>2021-05-31T14:58:15Z</time>
      </trkpt>
      <trkpt lat="46.57467" lon="-1.35403">
        <ele>36</ele>
        <time>2021-05-31T14:58:21Z</time>
      </trkpt>
      <trkpt lat="46.57464" lon="-1.35401">
        <ele>36</ele>
        <time>2021-05-31T14:58:25Z</time>
      </trkpt>
      <trkpt lat="46.57472" lon="-1.35396">
        <ele>36</ele>
        <time>2021-05-31T14:58:37Z</time>
      </trkpt>
      <trkpt lat="46.57489" lon="-1.35398">
        <ele>35</ele>
        <time>2021-05-31T14:58:59Z</time>
      </trkpt>
      <trkpt lat="46.57545" lon="-1.35371">
        <ele>36</ele>
        <time>2021-05-31T15:00:18Z</time>
      </trkpt>
      <trkpt lat="46.57586" lon="-1.35355">
        <ele>38</ele>
        <time>2021-05-31T15:01:15Z</time>
      </trkpt>
      <trkpt lat="46.57591" lon="-1.35346">
        <ele>40</ele>
        <time>2021-05-31T15:01:25Z</time>
      </trkpt>
      <trkpt lat="46.57589" lon="-1.3536">
        <ele>38</ele>
        <time>2021-05-31T15:01:38Z</time>
      </trkpt>
      <trkpt lat="46.57604" lon="-1.35378">
        <ele>36</ele>
        <time>2021-05-31T15:02:04Z</time>
      </trkpt>
      <trkpt lat="46.57617" lon="-1.35383">
        <ele>36</ele>
        <time>2021-05-31T15:02:22Z</time>
      </trkpt>
      <trkpt lat="46.57633" lon="-1.35401">
        <ele>35</ele>
        <time>2021-05-31T15:02:49Z</time>
      </trkpt>
      <trkpt lat="46.57649" lon="-1.35413">
        <ele>34</ele>
        <time>2021-05-31T15:03:13Z</time>
      </trkpt>
      <trkpt lat="46.57675" lon="-1.35458">
        <ele>34</ele>
        <time>2021-05-31T15:04:07Z</time>
      </trkpt>
      <trkpt lat="46.57687" lon="-1.35455">
        <ele>35</ele>
        <time>2021-05-31T15:04:24Z</time>
      </trkpt>
      <trkpt lat="46.57708" lon="-1.35434">
        <ele>39</ele>
        <time>2021-05-31T15:04:58Z</time>
      </trkpt>
      <trkpt lat="46.57724" lon="-1.35412">
        <ele>43</ele>
        <time>2021-05-31T15:05:27Z</time>
      </trkpt>
      <trkpt lat="46.57734" lon="-1.35415">
        <ele>44</ele>
        <time>2021-05-31T15:05:41Z</time>
      </trkpt>
      <trkpt lat="46.5775" lon="-1.35412">
        <ele>46</ele>
        <time>2021-05-31T15:06:02Z</time>
      </trkpt>
      <trkpt lat="46.57772" lon="-1.35379">
        <ele>48</ele>
        <time>2021-05-31T15:06:44Z</time>
      </trkpt>
      <trkpt lat="46.57785" lon="-1.35378">
        <ele>49</ele>
        <time>2021-05-31T15:07:02Z</time>
      </trkpt>
      <trkpt lat="46.57829" lon="-1.35394">
        <ele>50</ele>
        <time>2021-05-31T15:08:02Z</time>
      </trkpt>
      <trkpt lat="46.57834" lon="-1.35385">
        <ele>50</ele>
        <time>2021-05-31T15:08:13Z</time>
      </trkpt>
      <trkpt lat="46.57845" lon="-1.35339">
        <ele>51</ele>
        <time>2021-05-31T15:08:57Z</time>
      </trkpt>
      <trkpt lat="46.57849" lon="-1.35332">
        <ele>51</ele>
        <time>2021-05-31T15:09:06Z</time>
      </trkpt>
      <trkpt lat="46.57853" lon="-1.35331">
        <ele>51</ele>
        <time>2021-05-31T15:09:11Z</time>
      </trkpt>
      <trkpt lat="46.57854" lon="-1.35334">
        <ele>51</ele>
        <time>2021-05-31T15:09:14Z</time>
      </trkpt>
      <trkpt lat="46.57834" lon="-1.35379">
        <ele>50</ele>
        <time>2021-05-31T15:10:03Z</time>
      </trkpt>
      <trkpt lat="46.57828" lon="-1.35408">
        <ele>50</ele>
        <time>2021-05-31T15:10:31Z</time>
      </trkpt>
      <trkpt lat="46.57822" lon="-1.35468">
        <ele>47</ele>
        <time>2021-05-31T15:11:27Z</time>
      </trkpt>
      <trkpt lat="46.57824" lon="-1.35499">
        <ele>46</ele>
        <time>2021-05-31T15:11:55Z</time>
      </trkpt>
      <trkpt lat="46.57842" lon="-1.35547">
        <ele>44</ele>
        <time>2021-05-31T15:12:46Z</time>
      </trkpt>
      <trkpt lat="46.57856" lon="-1.35603">
        <ele>42</ele>
        <time>2021-05-31T15:13:40Z</time>
      </trkpt>
      <trkpt lat="46.57867" lon="-1.35669">
        <ele>41</ele>
        <time>2021-05-31T15:14:42Z</time>
      </trkpt>
      <trkpt lat="46.57865" lon="-1.35701">
        <ele>40</ele>
        <time>2021-05-31T15:15:12Z</time>
      </trkpt>
      <trkpt lat="46.57839" lon="-1.35787">
        <ele>37</ele>
        <time>2021-05-31T15:16:38Z</time>
      </trkpt>
      <trkpt lat="46.57832" lon="-1.35822">
        <ele>36</ele>
        <time>2021-05-31T15:17:12Z</time>
      </trkpt>
      <trkpt lat="46.57842" lon="-1.35896">
        <ele>34</ele>
        <time>2021-05-31T15:18:21Z</time>
      </trkpt>
      <trkpt lat="46.57852" lon="-1.35915">
        <ele>34</ele>
        <time>2021-05-31T15:18:43Z</time>
      </trkpt>
      <trkpt lat="46.57865" lon="-1.35923">
        <ele>34</ele>
        <time>2021-05-31T15:19:02Z</time>
      </trkpt>
      <trkpt lat="46.57882" lon="-1.35945">
        <ele>35</ele>
        <time>2021-05-31T15:19:32Z</time>
      </trkpt>
      <trkpt lat="46.57897" lon="-1.36004">
        <ele>36</ele>
        <time>2021-05-31T15:20:30Z</time>
      </trkpt>
      <trkpt lat="46.57959" lon="-1.36129">
        <ele>43</ele>
        <time>2021-05-31T15:22:51Z</time>
      </trkpt>
      <trkpt lat="46.57975" lon="-1.36151">
        <ele>44</ele>
        <time>2021-05-31T15:23:20Z</time>
      </trkpt>
      <trkpt lat="46.57992" lon="-1.36167">
        <ele>45</ele>
        <time>2021-05-31T15:23:47Z</time>
      </trkpt>
      <trkpt lat="46.58004" lon="-1.36183">
        <ele>44</ele>
        <time>2021-05-31T15:24:09Z</time>
      </trkpt>
      <trkpt lat="46.58026" lon="-1.36203">
        <ele>44</ele>
        <time>2021-05-31T15:24:44Z</time>
      </trkpt>
      <trkpt lat="46.58052" lon="-1.36222">
        <ele>43</ele>
        <time>2021-05-31T15:25:23Z</time>
      </trkpt>
      <trkpt lat="46.58059" lon="-1.3623">
        <ele>43</ele>
        <time>2021-05-31T15:25:34Z</time>
      </trkpt>
      <trkpt lat="46.58123" lon="-1.36261">
        <ele>38</ele>
        <time>2021-05-31T15:27:04Z</time>
      </trkpt>
      <trkpt lat="46.58145" lon="-1.3626">
        <ele>37</ele>
        <time>2021-05-31T15:27:34Z</time>
      </trkpt>
      <trkpt lat="46.58161" lon="-1.36255">
        <ele>36</ele>
        <time>2021-05-31T15:27:56Z</time>
      </trkpt>
      <trkpt lat="46.58169" lon="-1.36243">
        <ele>37</ele>
        <time>2021-05-31T15:28:11Z</time>
      </trkpt>
      <trkpt lat="46.58185" lon="-1.36208">
        <ele>38</ele>
        <time>2021-05-31T15:28:50Z</time>
      </trkpt>
      <trkpt lat="46.58194" lon="-1.3617">
        <ele>40</ele>
        <time>2021-05-31T15:29:26Z</time>
      </trkpt>
      <trkpt lat="46.58204" lon="-1.36143">
        <ele>40</ele>
        <time>2021-05-31T15:29:55Z</time>
      </trkpt>
      <trkpt lat="46.58207" lon="-1.36144">
        <ele>39</ele>
        <time>2021-05-31T15:29:59Z</time>
      </trkpt>
      <trkpt lat="46.58211" lon="-1.36151">
        <ele>38</ele>
        <time>2021-05-31T15:30:07Z</time>
      </trkpt>
      <trkpt lat="46.58234" lon="-1.36234">
        <ele>32</ele>
        <time>2021-05-31T15:31:29Z</time>
      </trkpt>
      <trkpt lat="46.58259" lon="-1.36288">
        <ele>31</ele>
        <time>2021-05-31T15:32:29Z</time>
      </trkpt>
      <trkpt lat="46.58269" lon="-1.36316">
        <ele>31</ele>
        <time>2021-05-31T15:32:58Z</time>
      </trkpt>
      <trkpt lat="46.58288" lon="-1.36386">
        <ele>32</ele>
        <time>2021-05-31T15:34:07Z</time>
      </trkpt>
      <trkpt lat="46.58311" lon="-1.36434">
        <ele>34</ele>
        <time>2021-05-31T15:35:00Z</time>
      </trkpt>
      <trkpt lat="46.58327" lon="-1.36449">
        <ele>36</ele>
        <time>2021-05-31T15:35:26Z</time>
      </trkpt>
      <trkpt lat="46.58346" lon="-1.36474">
        <ele>38</ele>
        <time>2021-05-31T15:36:00Z</time>
      </trkpt>
      <trkpt lat="46.58375" lon="-1.36524">
        <ele>41</ele>
        <time>2021-05-31T15:37:00Z</time>
      </trkpt>
      <trkpt lat="46.58385" lon="-1.36518">
        <ele>41</ele>
        <time>2021-05-31T15:37:14Z</time>
      </trkpt>
      <trkpt lat="46.58406" lon="-1.36489">
        <ele>40</ele>
        <time>2021-05-31T15:37:53Z</time>
      </trkpt>
      <trkpt lat="46.58425" lon="-1.36501">
        <ele>41</ele>
        <time>2021-05-31T15:38:21Z</time>
      </trkpt>
      <trkpt lat="46.5843" lon="-1.36508">
        <ele>41</ele>
        <time>2021-05-31T15:38:30Z</time>
      </trkpt>
    </trkseg>
  </trk>
</gpx>